<?xml version="1.0" encoding="UTF-8" standalone="no" ?>
<gpx xmlns="http://www.topografix.com/GPX/1/1" xmlns:xsi="http://www.w3.org/2001/XMLSchema-instance" xsi:schemaLocation="http://www.topografix.com/GPX/1/1 http://www.topografix.com/GPX/1/1/gpx.xsd" version="1.1" creator="VisuGPX - https://www.visugpx.com">
  <metadata>
    <name>Ploéven/Tréfeuntec</name>
    <desc><![CDATA[Une balade entre terre et mer en cette saison ou la nuit vient très vite, le GR34 est toujours agréable avec les grandes plages à marée basse, et la campagne à l\'intérieur est belle aussi avec ses couleurs d\'automne]]></desc>
  </metadata>
  <trk>
    <name><![CDATA[Ploéven/Tréfeuntec 1/12/15]]></name>
    <trkseg>
      <trkpt lat="48.12965" lon="-4.26792">
        <ele>11.673217773438</ele>
        <time>2015-12-01T12:52:02Z</time>
      </trkpt>
      <trkpt lat="48.1296" lon="-4.2679">
        <ele>11.673217773438</ele>
        <time>2015-12-01T12:52:07Z</time>
      </trkpt>
      <trkpt lat="48.12955" lon="-4.26786">
        <ele>11.673217773438</ele>
        <time>2015-12-01T12:52:12Z</time>
      </trkpt>
      <trkpt lat="48.12948" lon="-4.2678">
        <ele>11.673217773438</ele>
        <time>2015-12-01T12:52:20Z</time>
      </trkpt>
      <trkpt lat="48.1294" lon="-4.26773">
        <ele>15.037719726562</ele>
        <time>2015-12-01T12:52:28Z</time>
      </trkpt>
      <trkpt lat="48.12934" lon="-4.26765">
        <ele>15.518432617188</ele>
        <time>2015-12-01T12:52:35Z</time>
      </trkpt>
      <trkpt lat="48.12929" lon="-4.26757">
        <ele>15.518432617188</ele>
        <time>2015-12-01T12:52:42Z</time>
      </trkpt>
      <trkpt lat="48.12922" lon="-4.26747">
        <ele>16.96044921875</ele>
        <time>2015-12-01T12:52:50Z</time>
      </trkpt>
      <trkpt lat="48.12918" lon="-4.2674">
        <ele>16.479736328125</ele>
        <time>2015-12-01T12:52:56Z</time>
      </trkpt>
      <trkpt lat="48.12917" lon="-4.26738">
        <ele>15.9990234375</ele>
        <time>2015-12-01T12:53:01Z</time>
      </trkpt>
      <trkpt lat="48.12916" lon="-4.26735">
        <ele>16.96044921875</ele>
        <time>2015-12-01T12:53:09Z</time>
      </trkpt>
      <trkpt lat="48.12914" lon="-4.2673">
        <ele>17.921752929688</ele>
        <time>2015-12-01T12:53:14Z</time>
      </trkpt>
      <trkpt lat="48.12909" lon="-4.26725">
        <ele>17.921752929688</ele>
        <time>2015-12-01T12:53:20Z</time>
      </trkpt>
      <trkpt lat="48.12906" lon="-4.26723">
        <ele>18.40234375</ele>
        <time>2015-12-01T12:53:24Z</time>
      </trkpt>
      <trkpt lat="48.12901" lon="-4.26721">
        <ele>18.883056640625</ele>
        <time>2015-12-01T12:53:29Z</time>
      </trkpt>
      <trkpt lat="48.12898" lon="-4.2672">
        <ele>19.36376953125</ele>
        <time>2015-12-01T12:53:32Z</time>
      </trkpt>
      <trkpt lat="48.12891" lon="-4.26717">
        <ele>20.324951171875</ele>
        <time>2015-12-01T12:53:39Z</time>
      </trkpt>
      <trkpt lat="48.12886" lon="-4.26717">
        <ele>20.324951171875</ele>
        <time>2015-12-01T12:53:44Z</time>
      </trkpt>
      <trkpt lat="48.12881" lon="-4.26718">
        <ele>19.36376953125</ele>
        <time>2015-12-01T12:53:49Z</time>
      </trkpt>
      <trkpt lat="48.12874" lon="-4.26719">
        <ele>18.883056640625</ele>
        <time>2015-12-01T12:53:57Z</time>
      </trkpt>
      <trkpt lat="48.12868" lon="-4.26721">
        <ele>18.40234375</ele>
        <time>2015-12-01T12:54:04Z</time>
      </trkpt>
      <trkpt lat="48.12861" lon="-4.26721">
        <ele>15.518432617188</ele>
        <time>2015-12-01T12:54:12Z</time>
      </trkpt>
      <trkpt lat="48.12854" lon="-4.26722">
        <ele>16.96044921875</ele>
        <time>2015-12-01T12:54:19Z</time>
      </trkpt>
      <trkpt lat="48.12851" lon="-4.26723">
        <ele>20.324951171875</ele>
        <time>2015-12-01T12:54:23Z</time>
      </trkpt>
      <trkpt lat="48.12845" lon="-4.26729">
        <ele>21.286376953125</ele>
        <time>2015-12-01T12:54:29Z</time>
      </trkpt>
      <trkpt lat="48.12844" lon="-4.26735">
        <ele>21.766967773438</ele>
        <time>2015-12-01T12:54:32Z</time>
      </trkpt>
      <trkpt lat="48.12842" lon="-4.2675">
        <ele>23.208984375</ele>
        <time>2015-12-01T12:54:40Z</time>
      </trkpt>
      <trkpt lat="48.12841" lon="-4.26751">
        <ele>23.208984375</ele>
        <time>2015-12-01T12:54:41Z</time>
      </trkpt>
      <trkpt lat="48.12837" lon="-4.26762">
        <ele>25.131713867188</ele>
        <time>2015-12-01T12:54:48Z</time>
      </trkpt>
      <trkpt lat="48.12835" lon="-4.26772">
        <ele>26.092895507812</ele>
        <time>2015-12-01T12:54:54Z</time>
      </trkpt>
      <trkpt lat="48.12835" lon="-4.26775">
        <ele>26.092895507812</ele>
        <time>2015-12-01T12:54:56Z</time>
      </trkpt>
      <trkpt lat="48.12831" lon="-4.26785">
        <ele>27.054321289062</ele>
        <time>2015-12-01T12:55:03Z</time>
      </trkpt>
      <trkpt lat="48.1283" lon="-4.26794">
        <ele>28.015502929688</ele>
        <time>2015-12-01T12:55:08Z</time>
      </trkpt>
      <trkpt lat="48.12827" lon="-4.26804">
        <ele>32.341552734375</ele>
        <time>2015-12-01T12:55:16Z</time>
      </trkpt>
      <trkpt lat="48.12827" lon="-4.26814">
        <ele>31.860717773438</ele>
        <time>2015-12-01T12:55:20Z</time>
      </trkpt>
      <trkpt lat="48.12824" lon="-4.26826">
        <ele>32.822265625</ele>
        <time>2015-12-01T12:55:27Z</time>
      </trkpt>
      <trkpt lat="48.12823" lon="-4.26828">
        <ele>32.822265625</ele>
        <time>2015-12-01T12:55:28Z</time>
      </trkpt>
      <trkpt lat="48.12822" lon="-4.26844">
        <ele>33.783447265625</ele>
        <time>2015-12-01T12:55:37Z</time>
      </trkpt>
      <trkpt lat="48.12822" lon="-4.26854">
        <ele>35.225463867188</ele>
        <time>2015-12-01T12:55:43Z</time>
      </trkpt>
      <trkpt lat="48.12822" lon="-4.26855">
        <ele>35.7060546875</ele>
        <time>2015-12-01T12:55:44Z</time>
      </trkpt>
      <trkpt lat="48.12822" lon="-4.26867">
        <ele>36.66748046875</ele>
        <time>2015-12-01T12:55:51Z</time>
      </trkpt>
      <trkpt lat="48.12821" lon="-4.26879">
        <ele>36.186767578125</ele>
        <time>2015-12-01T12:55:58Z</time>
      </trkpt>
      <trkpt lat="48.1282" lon="-4.2689">
        <ele>39.070678710938</ele>
        <time>2015-12-01T12:56:06Z</time>
      </trkpt>
      <trkpt lat="48.1282" lon="-4.26904">
        <ele>38.590087890625</ele>
        <time>2015-12-01T12:56:13Z</time>
      </trkpt>
      <trkpt lat="48.12821" lon="-4.26918">
        <ele>38.109375</ele>
        <time>2015-12-01T12:56:20Z</time>
      </trkpt>
      <trkpt lat="48.12821" lon="-4.26931">
        <ele>38.109375</ele>
        <time>2015-12-01T12:56:27Z</time>
      </trkpt>
      <trkpt lat="48.12822" lon="-4.26947">
        <ele>39.070678710938</ele>
        <time>2015-12-01T12:56:36Z</time>
      </trkpt>
      <trkpt lat="48.12822" lon="-4.26958">
        <ele>39.55126953125</ele>
        <time>2015-12-01T12:56:42Z</time>
      </trkpt>
      <trkpt lat="48.12823" lon="-4.26972">
        <ele>40.512817382812</ele>
        <time>2015-12-01T12:56:49Z</time>
      </trkpt>
      <trkpt lat="48.12822" lon="-4.26988">
        <ele>40.032104492188</ele>
        <time>2015-12-01T12:56:57Z</time>
      </trkpt>
      <trkpt lat="48.1282" lon="-4.27003">
        <ele>39.55126953125</ele>
        <time>2015-12-01T12:57:05Z</time>
      </trkpt>
      <trkpt lat="48.12818" lon="-4.27016">
        <ele>37.628662109375</ele>
        <time>2015-12-01T12:57:12Z</time>
      </trkpt>
      <trkpt lat="48.12811" lon="-4.27029">
        <ele>38.109375</ele>
        <time>2015-12-01T12:57:20Z</time>
      </trkpt>
      <trkpt lat="48.12804" lon="-4.2704">
        <ele>39.070678710938</ele>
        <time>2015-12-01T12:57:28Z</time>
      </trkpt>
      <trkpt lat="48.12797" lon="-4.27049">
        <ele>39.070678710938</ele>
        <time>2015-12-01T12:57:36Z</time>
      </trkpt>
      <trkpt lat="48.12788" lon="-4.27056">
        <ele>40.512817382812</ele>
        <time>2015-12-01T12:57:43Z</time>
      </trkpt>
      <trkpt lat="48.12781" lon="-4.27059">
        <ele>41.473999023438</ele>
        <time>2015-12-01T12:57:49Z</time>
      </trkpt>
      <trkpt lat="48.12772" lon="-4.2706">
        <ele>41.473999023438</ele>
        <time>2015-12-01T12:57:55Z</time>
      </trkpt>
      <trkpt lat="48.12763" lon="-4.2706">
        <ele>41.473999023438</ele>
        <time>2015-12-01T12:58:02Z</time>
      </trkpt>
      <trkpt lat="48.12753" lon="-4.27058">
        <ele>42.435424804688</ele>
        <time>2015-12-01T12:58:09Z</time>
      </trkpt>
      <trkpt lat="48.12745" lon="-4.27056">
        <ele>42.435424804688</ele>
        <time>2015-12-01T12:58:15Z</time>
      </trkpt>
      <trkpt lat="48.12738" lon="-4.27055">
        <ele>41.473999023438</ele>
        <time>2015-12-01T12:58:21Z</time>
      </trkpt>
      <trkpt lat="48.12735" lon="-4.27055">
        <ele>41.473999023438</ele>
        <time>2015-12-01T12:58:24Z</time>
      </trkpt>
      <trkpt lat="48.12725" lon="-4.27053">
        <ele>39.55126953125</ele>
        <time>2015-12-01T12:58:32Z</time>
      </trkpt>
      <trkpt lat="48.12723" lon="-4.27053">
        <ele>39.070678710938</ele>
        <time>2015-12-01T12:58:34Z</time>
      </trkpt>
      <trkpt lat="48.12713" lon="-4.27049">
        <ele>36.66748046875</ele>
        <time>2015-12-01T12:58:43Z</time>
      </trkpt>
      <trkpt lat="48.12706" lon="-4.27046">
        <ele>35.7060546875</ele>
        <time>2015-12-01T12:58:48Z</time>
      </trkpt>
      <trkpt lat="48.12696" lon="-4.27044">
        <ele>35.7060546875</ele>
        <time>2015-12-01T12:58:56Z</time>
      </trkpt>
      <trkpt lat="48.12687" lon="-4.27042">
        <ele>36.186767578125</ele>
        <time>2015-12-01T12:59:03Z</time>
      </trkpt>
      <trkpt lat="48.1268" lon="-4.27041">
        <ele>36.186767578125</ele>
        <time>2015-12-01T12:59:09Z</time>
      </trkpt>
      <trkpt lat="48.12672" lon="-4.27039">
        <ele>36.66748046875</ele>
        <time>2015-12-01T12:59:16Z</time>
      </trkpt>
      <trkpt lat="48.1266" lon="-4.27035">
        <ele>38.109375</ele>
        <time>2015-12-01T12:59:25Z</time>
      </trkpt>
      <trkpt lat="48.12649" lon="-4.27032">
        <ele>39.070678710938</ele>
        <time>2015-12-01T12:59:34Z</time>
      </trkpt>
      <trkpt lat="48.12643" lon="-4.2703">
        <ele>39.070678710938</ele>
        <time>2015-12-01T12:59:39Z</time>
      </trkpt>
      <trkpt lat="48.12635" lon="-4.27028">
        <ele>38.590087890625</ele>
        <time>2015-12-01T12:59:46Z</time>
      </trkpt>
      <trkpt lat="48.12634" lon="-4.27028">
        <ele>38.590087890625</ele>
        <time>2015-12-01T12:59:47Z</time>
      </trkpt>
      <trkpt lat="48.12627" lon="-4.27026">
        <ele>38.590087890625</ele>
        <time>2015-12-01T12:59:53Z</time>
      </trkpt>
      <trkpt lat="48.12614" lon="-4.27021">
        <ele>38.109375</ele>
        <time>2015-12-01T13:00:03Z</time>
      </trkpt>
      <trkpt lat="48.126" lon="-4.27016">
        <ele>39.55126953125</ele>
        <time>2015-12-01T13:00:14Z</time>
      </trkpt>
      <trkpt lat="48.12591" lon="-4.27012">
        <ele>40.512817382812</ele>
        <time>2015-12-01T13:00:21Z</time>
      </trkpt>
      <trkpt lat="48.12583" lon="-4.27008">
        <ele>41.473999023438</ele>
        <time>2015-12-01T13:00:27Z</time>
      </trkpt>
      <trkpt lat="48.12574" lon="-4.27004">
        <ele>41.473999023438</ele>
        <time>2015-12-01T13:00:35Z</time>
      </trkpt>
      <trkpt lat="48.12568" lon="-4.27">
        <ele>41.473999023438</ele>
        <time>2015-12-01T13:00:42Z</time>
      </trkpt>
      <trkpt lat="48.12567" lon="-4.27">
        <ele>40.993408203125</ele>
        <time>2015-12-01T13:00:50Z</time>
      </trkpt>
      <trkpt lat="48.12567" lon="-4.27001">
        <ele>40.993408203125</ele>
        <time>2015-12-01T13:01:07Z</time>
      </trkpt>
      <trkpt lat="48.12566" lon="-4.27001">
        <ele>41.473999023438</ele>
        <time>2015-12-01T13:01:28Z</time>
      </trkpt>
      <trkpt lat="48.12567" lon="-4.26998">
        <ele>40.512817382812</ele>
        <time>2015-12-01T13:01:39Z</time>
      </trkpt>
      <trkpt lat="48.12566" lon="-4.26995">
        <ele>40.512817382812</ele>
        <time>2015-12-01T13:01:41Z</time>
      </trkpt>
      <trkpt lat="48.12566" lon="-4.26988">
        <ele>40.512817382812</ele>
        <time>2015-12-01T13:01:48Z</time>
      </trkpt>
      <trkpt lat="48.12567" lon="-4.26983">
        <ele>39.55126953125</ele>
        <time>2015-12-01T13:02:00Z</time>
      </trkpt>
      <trkpt lat="48.12568" lon="-4.2697">
        <ele>38.590087890625</ele>
        <time>2015-12-01T13:02:08Z</time>
      </trkpt>
      <trkpt lat="48.1257" lon="-4.26958">
        <ele>39.55126953125</ele>
        <time>2015-12-01T13:02:14Z</time>
      </trkpt>
      <trkpt lat="48.12573" lon="-4.26945">
        <ele>39.070678710938</ele>
        <time>2015-12-01T13:02:22Z</time>
      </trkpt>
      <trkpt lat="48.12574" lon="-4.26933">
        <ele>37.628662109375</ele>
        <time>2015-12-01T13:02:28Z</time>
      </trkpt>
      <trkpt lat="48.12575" lon="-4.26919">
        <ele>36.186767578125</ele>
        <time>2015-12-01T13:02:36Z</time>
      </trkpt>
      <trkpt lat="48.12575" lon="-4.26915">
        <ele>36.186767578125</ele>
        <time>2015-12-01T13:02:38Z</time>
      </trkpt>
      <trkpt lat="48.12577" lon="-4.26908">
        <ele>35.7060546875</ele>
        <time>2015-12-01T13:02:42Z</time>
      </trkpt>
      <trkpt lat="48.1258" lon="-4.26894">
        <ele>34.744873046875</ele>
        <time>2015-12-01T13:02:50Z</time>
      </trkpt>
      <trkpt lat="48.12582" lon="-4.26882">
        <ele>34.26416015625</ele>
        <time>2015-12-01T13:02:56Z</time>
      </trkpt>
      <trkpt lat="48.12583" lon="-4.26868">
        <ele>34.744873046875</ele>
        <time>2015-12-01T13:03:03Z</time>
      </trkpt>
      <trkpt lat="48.12584" lon="-4.26856">
        <ele>33.302856445312</ele>
        <time>2015-12-01T13:03:10Z</time>
      </trkpt>
      <trkpt lat="48.12584" lon="-4.26853">
        <ele>33.302856445312</ele>
        <time>2015-12-01T13:03:12Z</time>
      </trkpt>
      <trkpt lat="48.12588" lon="-4.2684">
        <ele>31.860717773438</ele>
        <time>2015-12-01T13:03:19Z</time>
      </trkpt>
      <trkpt lat="48.12592" lon="-4.2683">
        <ele>31.380126953125</ele>
        <time>2015-12-01T13:03:26Z</time>
      </trkpt>
      <trkpt lat="48.12599" lon="-4.26819">
        <ele>30.418823242188</ele>
        <time>2015-12-01T13:03:34Z</time>
      </trkpt>
      <trkpt lat="48.12606" lon="-4.26811">
        <ele>31.380126953125</ele>
        <time>2015-12-01T13:03:41Z</time>
      </trkpt>
      <trkpt lat="48.12612" lon="-4.26802">
        <ele>30.899536132812</ele>
        <time>2015-12-01T13:03:48Z</time>
      </trkpt>
      <trkpt lat="48.12616" lon="-4.26795">
        <ele>30.899536132812</ele>
        <time>2015-12-01T13:03:53Z</time>
      </trkpt>
      <trkpt lat="48.12622" lon="-4.26789">
        <ele>30.418823242188</ele>
        <time>2015-12-01T13:03:59Z</time>
      </trkpt>
      <trkpt lat="48.12627" lon="-4.26781">
        <ele>30.899536132812</ele>
        <time>2015-12-01T13:04:05Z</time>
      </trkpt>
      <trkpt lat="48.12632" lon="-4.26773">
        <ele>30.899536132812</ele>
        <time>2015-12-01T13:04:11Z</time>
      </trkpt>
      <trkpt lat="48.12634" lon="-4.2677">
        <ele>30.899536132812</ele>
        <time>2015-12-01T13:04:13Z</time>
      </trkpt>
      <trkpt lat="48.12642" lon="-4.26758">
        <ele>30.418823242188</ele>
        <time>2015-12-01T13:04:22Z</time>
      </trkpt>
      <trkpt lat="48.12649" lon="-4.26747">
        <ele>29.45751953125</ele>
        <time>2015-12-01T13:04:30Z</time>
      </trkpt>
      <trkpt lat="48.12655" lon="-4.26736">
        <ele>28.496215820312</ele>
        <time>2015-12-01T13:04:38Z</time>
      </trkpt>
      <trkpt lat="48.12659" lon="-4.26729">
        <ele>28.015502929688</ele>
        <time>2015-12-01T13:04:43Z</time>
      </trkpt>
      <trkpt lat="48.12666" lon="-4.26722">
        <ele>28.976928710938</ele>
        <time>2015-12-01T13:04:50Z</time>
      </trkpt>
      <trkpt lat="48.12672" lon="-4.26717">
        <ele>28.976928710938</ele>
        <time>2015-12-01T13:04:55Z</time>
      </trkpt>
      <trkpt lat="48.1268" lon="-4.26704">
        <ele>26.092895507812</ele>
        <time>2015-12-01T13:05:05Z</time>
      </trkpt>
      <trkpt lat="48.12685" lon="-4.26697">
        <ele>24.651000976562</ele>
        <time>2015-12-01T13:05:12Z</time>
      </trkpt>
      <trkpt lat="48.1269" lon="-4.26687">
        <ele>22.728271484375</ele>
        <time>2015-12-01T13:05:19Z</time>
      </trkpt>
      <trkpt lat="48.12693" lon="-4.26682">
        <ele>22.24755859375</ele>
        <time>2015-12-01T13:05:23Z</time>
      </trkpt>
      <trkpt lat="48.12698" lon="-4.26672">
        <ele>21.286376953125</ele>
        <time>2015-12-01T13:05:30Z</time>
      </trkpt>
      <trkpt lat="48.12706" lon="-4.26661">
        <ele>19.36376953125</ele>
        <time>2015-12-01T13:05:38Z</time>
      </trkpt>
      <trkpt lat="48.1271" lon="-4.26652">
        <ele>17.921752929688</ele>
        <time>2015-12-01T13:05:44Z</time>
      </trkpt>
      <trkpt lat="48.12712" lon="-4.26649">
        <ele>18.883056640625</ele>
        <time>2015-12-01T13:05:46Z</time>
      </trkpt>
      <trkpt lat="48.12718" lon="-4.26641">
        <ele>18.40234375</ele>
        <time>2015-12-01T13:05:53Z</time>
      </trkpt>
      <trkpt lat="48.12723" lon="-4.26635">
        <ele>17.441162109375</ele>
        <time>2015-12-01T13:05:58Z</time>
      </trkpt>
      <trkpt lat="48.12729" lon="-4.26628">
        <ele>16.479736328125</ele>
        <time>2015-12-01T13:06:04Z</time>
      </trkpt>
      <trkpt lat="48.12733" lon="-4.26623">
        <ele>15.037719726562</ele>
        <time>2015-12-01T13:06:08Z</time>
      </trkpt>
      <trkpt lat="48.12735" lon="-4.2662">
        <ele>14.557006835938</ele>
        <time>2015-12-01T13:06:10Z</time>
      </trkpt>
      <trkpt lat="48.12739" lon="-4.26613">
        <ele>13.595825195312</ele>
        <time>2015-12-01T13:06:14Z</time>
      </trkpt>
      <trkpt lat="48.12743" lon="-4.26607">
        <ele>13.115112304688</ele>
        <time>2015-12-01T13:06:19Z</time>
      </trkpt>
      <trkpt lat="48.12746" lon="-4.26603">
        <ele>12.634399414062</ele>
        <time>2015-12-01T13:06:22Z</time>
      </trkpt>
      <trkpt lat="48.12746" lon="-4.26598">
        <ele>12.15380859375</ele>
        <time>2015-12-01T13:06:24Z</time>
      </trkpt>
      <trkpt lat="48.12743" lon="-4.26587">
        <ele>11.673217773438</ele>
        <time>2015-12-01T13:06:31Z</time>
      </trkpt>
      <trkpt lat="48.12732" lon="-4.26581">
        <ele>10.711791992188</ele>
        <time>2015-12-01T13:06:40Z</time>
      </trkpt>
      <trkpt lat="48.12722" lon="-4.26576">
        <ele>10.231201171875</ele>
        <time>2015-12-01T13:06:48Z</time>
      </trkpt>
      <trkpt lat="48.12712" lon="-4.26572">
        <ele>10.711791992188</ele>
        <time>2015-12-01T13:06:56Z</time>
      </trkpt>
      <trkpt lat="48.12704" lon="-4.2657">
        <ele>11.192504882812</ele>
        <time>2015-12-01T13:07:03Z</time>
      </trkpt>
      <trkpt lat="48.12693" lon="-4.26566">
        <ele>12.634399414062</ele>
        <time>2015-12-01T13:07:11Z</time>
      </trkpt>
      <trkpt lat="48.12684" lon="-4.26564">
        <ele>12.634399414062</ele>
        <time>2015-12-01T13:07:18Z</time>
      </trkpt>
      <trkpt lat="48.12674" lon="-4.26561">
        <ele>13.595825195312</ele>
        <time>2015-12-01T13:07:26Z</time>
      </trkpt>
      <trkpt lat="48.12665" lon="-4.26557">
        <ele>15.518432617188</ele>
        <time>2015-12-01T13:07:32Z</time>
      </trkpt>
      <trkpt lat="48.12661" lon="-4.26555">
        <ele>15.037719726562</ele>
        <time>2015-12-01T13:07:35Z</time>
      </trkpt>
      <trkpt lat="48.12654" lon="-4.26552">
        <ele>16.479736328125</ele>
        <time>2015-12-01T13:07:41Z</time>
      </trkpt>
      <trkpt lat="48.12648" lon="-4.26551">
        <ele>17.441162109375</ele>
        <time>2015-12-01T13:07:45Z</time>
      </trkpt>
      <trkpt lat="48.12641" lon="-4.26547">
        <ele>18.883056640625</ele>
        <time>2015-12-01T13:07:51Z</time>
      </trkpt>
      <trkpt lat="48.12638" lon="-4.26546">
        <ele>19.36376953125</ele>
        <time>2015-12-01T13:07:54Z</time>
      </trkpt>
      <trkpt lat="48.12627" lon="-4.26543">
        <ele>19.844360351562</ele>
        <time>2015-12-01T13:08:02Z</time>
      </trkpt>
      <trkpt lat="48.12619" lon="-4.26539">
        <ele>20.8056640625</ele>
        <time>2015-12-01T13:08:09Z</time>
      </trkpt>
      <trkpt lat="48.12609" lon="-4.26533">
        <ele>21.766967773438</ele>
        <time>2015-12-01T13:08:17Z</time>
      </trkpt>
      <trkpt lat="48.12601" lon="-4.26528">
        <ele>21.766967773438</ele>
        <time>2015-12-01T13:08:24Z</time>
      </trkpt>
      <trkpt lat="48.12592" lon="-4.2652">
        <ele>22.728271484375</ele>
        <time>2015-12-01T13:08:32Z</time>
      </trkpt>
      <trkpt lat="48.12581" lon="-4.2651">
        <ele>23.208984375</ele>
        <time>2015-12-01T13:08:42Z</time>
      </trkpt>
      <trkpt lat="48.12574" lon="-4.26502">
        <ele>23.689575195312</ele>
        <time>2015-12-01T13:08:49Z</time>
      </trkpt>
      <trkpt lat="48.12564" lon="-4.2649">
        <ele>25.6123046875</ele>
        <time>2015-12-01T13:08:58Z</time>
      </trkpt>
      <trkpt lat="48.12557" lon="-4.26482">
        <ele>25.6123046875</ele>
        <time>2015-12-01T13:09:05Z</time>
      </trkpt>
      <trkpt lat="48.12552" lon="-4.26476">
        <ele>25.131713867188</ele>
        <time>2015-12-01T13:09:11Z</time>
      </trkpt>
      <trkpt lat="48.12549" lon="-4.26471">
        <ele>24.651000976562</ele>
        <time>2015-12-01T13:09:15Z</time>
      </trkpt>
      <trkpt lat="48.12547" lon="-4.26466">
        <ele>24.651000976562</ele>
        <time>2015-12-01T13:09:19Z</time>
      </trkpt>
      <trkpt lat="48.12545" lon="-4.26464">
        <ele>24.651000976562</ele>
        <time>2015-12-01T13:09:21Z</time>
      </trkpt>
      <trkpt lat="48.12542" lon="-4.26457">
        <ele>25.6123046875</ele>
        <time>2015-12-01T13:09:26Z</time>
      </trkpt>
      <trkpt lat="48.1254" lon="-4.26453">
        <ele>26.092895507812</ele>
        <time>2015-12-01T13:09:29Z</time>
      </trkpt>
      <trkpt lat="48.12535" lon="-4.26442">
        <ele>28.496215820312</ele>
        <time>2015-12-01T13:09:37Z</time>
      </trkpt>
      <trkpt lat="48.1253" lon="-4.2643">
        <ele>29.45751953125</ele>
        <time>2015-12-01T13:09:45Z</time>
      </trkpt>
      <trkpt lat="48.12524" lon="-4.26419">
        <ele>28.976928710938</ele>
        <time>2015-12-01T13:09:52Z</time>
      </trkpt>
      <trkpt lat="48.1252" lon="-4.26408">
        <ele>27.054321289062</ele>
        <time>2015-12-01T13:10:00Z</time>
      </trkpt>
      <trkpt lat="48.12514" lon="-4.26397">
        <ele>28.496215820312</ele>
        <time>2015-12-01T13:10:08Z</time>
      </trkpt>
      <trkpt lat="48.12513" lon="-4.26392">
        <ele>28.976928710938</ele>
        <time>2015-12-01T13:10:11Z</time>
      </trkpt>
      <trkpt lat="48.12508" lon="-4.26378">
        <ele>30.418823242188</ele>
        <time>2015-12-01T13:10:20Z</time>
      </trkpt>
      <trkpt lat="48.12505" lon="-4.26369">
        <ele>31.860717773438</ele>
        <time>2015-12-01T13:10:26Z</time>
      </trkpt>
      <trkpt lat="48.12503" lon="-4.26361">
        <ele>32.341552734375</ele>
        <time>2015-12-01T13:10:31Z</time>
      </trkpt>
      <trkpt lat="48.12499" lon="-4.2635">
        <ele>34.26416015625</ele>
        <time>2015-12-01T13:10:38Z</time>
      </trkpt>
      <trkpt lat="48.12495" lon="-4.26343">
        <ele>34.744873046875</ele>
        <time>2015-12-01T13:10:43Z</time>
      </trkpt>
      <trkpt lat="48.12491" lon="-4.26335">
        <ele>34.744873046875</ele>
        <time>2015-12-01T13:10:50Z</time>
      </trkpt>
      <trkpt lat="48.12487" lon="-4.26328">
        <ele>35.225463867188</ele>
        <time>2015-12-01T13:10:55Z</time>
      </trkpt>
      <trkpt lat="48.12482" lon="-4.26321">
        <ele>34.744873046875</ele>
        <time>2015-12-01T13:11:01Z</time>
      </trkpt>
      <trkpt lat="48.12479" lon="-4.26317">
        <ele>34.744873046875</ele>
        <time>2015-12-01T13:11:04Z</time>
      </trkpt>
      <trkpt lat="48.12474" lon="-4.26311">
        <ele>35.225463867188</ele>
        <time>2015-12-01T13:11:09Z</time>
      </trkpt>
      <trkpt lat="48.12466" lon="-4.26301">
        <ele>35.7060546875</ele>
        <time>2015-12-01T13:11:18Z</time>
      </trkpt>
      <trkpt lat="48.12459" lon="-4.26294">
        <ele>36.66748046875</ele>
        <time>2015-12-01T13:11:24Z</time>
      </trkpt>
      <trkpt lat="48.12454" lon="-4.26289">
        <ele>37.628662109375</ele>
        <time>2015-12-01T13:11:29Z</time>
      </trkpt>
      <trkpt lat="48.12451" lon="-4.26287">
        <ele>38.590087890625</ele>
        <time>2015-12-01T13:11:31Z</time>
      </trkpt>
      <trkpt lat="48.12441" lon="-4.2628">
        <ele>39.55126953125</ele>
        <time>2015-12-01T13:11:39Z</time>
      </trkpt>
      <trkpt lat="48.12432" lon="-4.26275">
        <ele>40.032104492188</ele>
        <time>2015-12-01T13:11:46Z</time>
      </trkpt>
      <trkpt lat="48.12424" lon="-4.26271">
        <ele>40.512817382812</ele>
        <time>2015-12-01T13:11:53Z</time>
      </trkpt>
      <trkpt lat="48.12414" lon="-4.26267">
        <ele>39.55126953125</ele>
        <time>2015-12-01T13:12:01Z</time>
      </trkpt>
      <trkpt lat="48.12408" lon="-4.26266">
        <ele>40.032104492188</ele>
        <time>2015-12-01T13:12:06Z</time>
      </trkpt>
      <trkpt lat="48.124" lon="-4.26262">
        <ele>40.032104492188</ele>
        <time>2015-12-01T13:12:13Z</time>
      </trkpt>
      <trkpt lat="48.12394" lon="-4.26261">
        <ele>39.070678710938</ele>
        <time>2015-12-01T13:12:19Z</time>
      </trkpt>
      <trkpt lat="48.12386" lon="-4.26254">
        <ele>39.070678710938</ele>
        <time>2015-12-01T13:12:26Z</time>
      </trkpt>
      <trkpt lat="48.12382" lon="-4.26251">
        <ele>39.070678710938</ele>
        <time>2015-12-01T13:12:30Z</time>
      </trkpt>
      <trkpt lat="48.12376" lon="-4.26247">
        <ele>40.512817382812</ele>
        <time>2015-12-01T13:12:35Z</time>
      </trkpt>
      <trkpt lat="48.12368" lon="-4.26239">
        <ele>41.954711914062</ele>
        <time>2015-12-01T13:12:42Z</time>
      </trkpt>
      <trkpt lat="48.1236" lon="-4.26233">
        <ele>42.916015625</ele>
        <time>2015-12-01T13:12:48Z</time>
      </trkpt>
      <trkpt lat="48.12354" lon="-4.26227">
        <ele>43.877319335938</ele>
        <time>2015-12-01T13:12:53Z</time>
      </trkpt>
      <trkpt lat="48.12348" lon="-4.26222">
        <ele>45.319213867188</ele>
        <time>2015-12-01T13:13:00Z</time>
      </trkpt>
      <trkpt lat="48.12343" lon="-4.26215">
        <ele>45.799926757812</ele>
        <time>2015-12-01T13:13:07Z</time>
      </trkpt>
      <trkpt lat="48.12337" lon="-4.26209">
        <ele>44.838623046875</ele>
        <time>2015-12-01T13:13:14Z</time>
      </trkpt>
      <trkpt lat="48.12333" lon="-4.26203">
        <ele>43.877319335938</ele>
        <time>2015-12-01T13:13:19Z</time>
      </trkpt>
      <trkpt lat="48.12327" lon="-4.26193">
        <ele>43.877319335938</ele>
        <time>2015-12-01T13:13:25Z</time>
      </trkpt>
      <trkpt lat="48.12319" lon="-4.26183">
        <ele>45.799926757812</ele>
        <time>2015-12-01T13:13:32Z</time>
      </trkpt>
      <trkpt lat="48.12315" lon="-4.26176">
        <ele>45.799926757812</ele>
        <time>2015-12-01T13:13:37Z</time>
      </trkpt>
      <trkpt lat="48.12307" lon="-4.26167">
        <ele>45.319213867188</ele>
        <time>2015-12-01T13:13:44Z</time>
      </trkpt>
      <trkpt lat="48.12305" lon="-4.26162">
        <ele>45.319213867188</ele>
        <time>2015-12-01T13:13:48Z</time>
      </trkpt>
      <trkpt lat="48.12303" lon="-4.26159">
        <ele>45.799926757812</ele>
        <time>2015-12-01T13:13:50Z</time>
      </trkpt>
      <trkpt lat="48.12298" lon="-4.26152">
        <ele>46.280639648438</ele>
        <time>2015-12-01T13:13:55Z</time>
      </trkpt>
      <trkpt lat="48.12291" lon="-4.26141">
        <ele>47.241821289062</ele>
        <time>2015-12-01T13:14:03Z</time>
      </trkpt>
      <trkpt lat="48.12289" lon="-4.26138">
        <ele>47.722534179688</ele>
        <time>2015-12-01T13:14:06Z</time>
      </trkpt>
      <trkpt lat="48.12282" lon="-4.26128">
        <ele>48.203369140625</ele>
        <time>2015-12-01T13:14:13Z</time>
      </trkpt>
      <trkpt lat="48.12273" lon="-4.26117">
        <ele>48.203369140625</ele>
        <time>2015-12-01T13:14:21Z</time>
      </trkpt>
      <trkpt lat="48.12269" lon="-4.26111">
        <ele>48.203369140625</ele>
        <time>2015-12-01T13:14:25Z</time>
      </trkpt>
      <trkpt lat="48.12263" lon="-4.26101">
        <ele>48.203369140625</ele>
        <time>2015-12-01T13:14:32Z</time>
      </trkpt>
      <trkpt lat="48.12257" lon="-4.26093">
        <ele>47.722534179688</ele>
        <time>2015-12-01T13:14:38Z</time>
      </trkpt>
      <trkpt lat="48.12251" lon="-4.26085">
        <ele>47.241821289062</ele>
        <time>2015-12-01T13:14:44Z</time>
      </trkpt>
      <trkpt lat="48.12243" lon="-4.26076">
        <ele>47.241821289062</ele>
        <time>2015-12-01T13:14:52Z</time>
      </trkpt>
      <trkpt lat="48.12236" lon="-4.26068">
        <ele>47.722534179688</ele>
        <time>2015-12-01T13:14:59Z</time>
      </trkpt>
      <trkpt lat="48.12225" lon="-4.26061">
        <ele>47.241821289062</ele>
        <time>2015-12-01T13:15:08Z</time>
      </trkpt>
      <trkpt lat="48.12217" lon="-4.26057">
        <ele>46.76123046875</ele>
        <time>2015-12-01T13:15:14Z</time>
      </trkpt>
      <trkpt lat="48.12207" lon="-4.26051">
        <ele>44.358032226562</ele>
        <time>2015-12-01T13:15:23Z</time>
      </trkpt>
      <trkpt lat="48.12201" lon="-4.26047">
        <ele>43.396606445312</ele>
        <time>2015-12-01T13:15:28Z</time>
      </trkpt>
      <trkpt lat="48.1219" lon="-4.26043">
        <ele>41.473999023438</ele>
        <time>2015-12-01T13:15:37Z</time>
      </trkpt>
      <trkpt lat="48.12181" lon="-4.26041">
        <ele>39.55126953125</ele>
        <time>2015-12-01T13:15:45Z</time>
      </trkpt>
      <trkpt lat="48.1217" lon="-4.26039">
        <ele>38.590087890625</ele>
        <time>2015-12-01T13:15:54Z</time>
      </trkpt>
      <trkpt lat="48.1216" lon="-4.26038">
        <ele>39.070678710938</ele>
        <time>2015-12-01T13:16:03Z</time>
      </trkpt>
      <trkpt lat="48.12153" lon="-4.26036">
        <ele>39.070678710938</ele>
        <time>2015-12-01T13:16:08Z</time>
      </trkpt>
      <trkpt lat="48.1215" lon="-4.26035">
        <ele>39.55126953125</ele>
        <time>2015-12-01T13:16:10Z</time>
      </trkpt>
      <trkpt lat="48.12139" lon="-4.26034">
        <ele>40.512817382812</ele>
        <time>2015-12-01T13:16:18Z</time>
      </trkpt>
      <trkpt lat="48.12129" lon="-4.26032">
        <ele>40.993408203125</ele>
        <time>2015-12-01T13:16:25Z</time>
      </trkpt>
      <trkpt lat="48.12122" lon="-4.2603">
        <ele>41.473999023438</ele>
        <time>2015-12-01T13:16:31Z</time>
      </trkpt>
      <trkpt lat="48.12118" lon="-4.26027">
        <ele>41.954711914062</ele>
        <time>2015-12-01T13:16:34Z</time>
      </trkpt>
      <trkpt lat="48.12107" lon="-4.26021">
        <ele>41.954711914062</ele>
        <time>2015-12-01T13:16:43Z</time>
      </trkpt>
      <trkpt lat="48.12097" lon="-4.26016">
        <ele>42.435424804688</ele>
        <time>2015-12-01T13:16:51Z</time>
      </trkpt>
      <trkpt lat="48.12089" lon="-4.26012">
        <ele>42.916015625</ele>
        <time>2015-12-01T13:16:58Z</time>
      </trkpt>
      <trkpt lat="48.12083" lon="-4.26011">
        <ele>41.473999023438</ele>
        <time>2015-12-01T13:17:03Z</time>
      </trkpt>
      <trkpt lat="48.12081" lon="-4.26014">
        <ele>40.993408203125</ele>
        <time>2015-12-01T13:17:05Z</time>
      </trkpt>
      <trkpt lat="48.12081" lon="-4.26026">
        <ele>42.435424804688</ele>
        <time>2015-12-01T13:17:11Z</time>
      </trkpt>
      <trkpt lat="48.12081" lon="-4.2604">
        <ele>44.358032226562</ele>
        <time>2015-12-01T13:17:18Z</time>
      </trkpt>
      <trkpt lat="48.1208" lon="-4.26053">
        <ele>44.838623046875</ele>
        <time>2015-12-01T13:17:25Z</time>
      </trkpt>
      <trkpt lat="48.1208" lon="-4.26066">
        <ele>45.799926757812</ele>
        <time>2015-12-01T13:17:32Z</time>
      </trkpt>
      <trkpt lat="48.12079" lon="-4.26077">
        <ele>46.280639648438</ele>
        <time>2015-12-01T13:17:39Z</time>
      </trkpt>
      <trkpt lat="48.1208" lon="-4.26091">
        <ele>45.799926757812</ele>
        <time>2015-12-01T13:17:47Z</time>
      </trkpt>
      <trkpt lat="48.12084" lon="-4.26101">
        <ele>45.319213867188</ele>
        <time>2015-12-01T13:17:54Z</time>
      </trkpt>
      <trkpt lat="48.12088" lon="-4.26111">
        <ele>45.319213867188</ele>
        <time>2015-12-01T13:18:01Z</time>
      </trkpt>
      <trkpt lat="48.1209" lon="-4.26123">
        <ele>46.280639648438</ele>
        <time>2015-12-01T13:18:08Z</time>
      </trkpt>
      <trkpt lat="48.12089" lon="-4.26136">
        <ele>46.76123046875</ele>
        <time>2015-12-01T13:18:15Z</time>
      </trkpt>
      <trkpt lat="48.12087" lon="-4.26148">
        <ele>47.241821289062</ele>
        <time>2015-12-01T13:18:22Z</time>
      </trkpt>
      <trkpt lat="48.12085" lon="-4.2616">
        <ele>48.683959960938</ele>
        <time>2015-12-01T13:18:29Z</time>
      </trkpt>
      <trkpt lat="48.12082" lon="-4.26171">
        <ele>49.645263671875</ele>
        <time>2015-12-01T13:18:35Z</time>
      </trkpt>
      <trkpt lat="48.12081" lon="-4.26175">
        <ele>50.1259765625</ele>
        <time>2015-12-01T13:18:37Z</time>
      </trkpt>
      <trkpt lat="48.12079" lon="-4.26189">
        <ele>50.606567382812</ele>
        <time>2015-12-01T13:18:45Z</time>
      </trkpt>
      <trkpt lat="48.12076" lon="-4.26202">
        <ele>51.087158203125</ele>
        <time>2015-12-01T13:18:52Z</time>
      </trkpt>
      <trkpt lat="48.12074" lon="-4.26212">
        <ele>51.56787109375</ele>
        <time>2015-12-01T13:18:58Z</time>
      </trkpt>
      <trkpt lat="48.12071" lon="-4.26223">
        <ele>51.56787109375</ele>
        <time>2015-12-01T13:19:05Z</time>
      </trkpt>
      <trkpt lat="48.12068" lon="-4.26237">
        <ele>52.529174804688</ele>
        <time>2015-12-01T13:19:13Z</time>
      </trkpt>
      <trkpt lat="48.12066" lon="-4.26249">
        <ele>52.529174804688</ele>
        <time>2015-12-01T13:19:20Z</time>
      </trkpt>
      <trkpt lat="48.12063" lon="-4.26262">
        <ele>53.009765625</ele>
        <time>2015-12-01T13:19:28Z</time>
      </trkpt>
      <trkpt lat="48.12062" lon="-4.26271">
        <ele>53.009765625</ele>
        <time>2015-12-01T13:19:33Z</time>
      </trkpt>
      <trkpt lat="48.1206" lon="-4.2628">
        <ele>52.529174804688</ele>
        <time>2015-12-01T13:19:38Z</time>
      </trkpt>
      <trkpt lat="48.12058" lon="-4.26291">
        <ele>53.490478515625</ele>
        <time>2015-12-01T13:19:44Z</time>
      </trkpt>
      <trkpt lat="48.12056" lon="-4.26303">
        <ele>53.97119140625</ele>
        <time>2015-12-01T13:19:51Z</time>
      </trkpt>
      <trkpt lat="48.12053" lon="-4.26315">
        <ele>54.451782226562</ele>
        <time>2015-12-01T13:19:58Z</time>
      </trkpt>
      <trkpt lat="48.12051" lon="-4.26327">
        <ele>54.932373046875</ele>
        <time>2015-12-01T13:20:05Z</time>
      </trkpt>
      <trkpt lat="48.12049" lon="-4.26337">
        <ele>55.4130859375</ele>
        <time>2015-12-01T13:20:11Z</time>
      </trkpt>
      <trkpt lat="48.12046" lon="-4.2635">
        <ele>56.855102539062</ele>
        <time>2015-12-01T13:20:19Z</time>
      </trkpt>
      <trkpt lat="48.12046" lon="-4.26352">
        <ele>56.855102539062</ele>
        <time>2015-12-01T13:20:20Z</time>
      </trkpt>
      <trkpt lat="48.12045" lon="-4.26359">
        <ele>56.37451171875</ele>
        <time>2015-12-01T13:20:25Z</time>
      </trkpt>
      <trkpt lat="48.12045" lon="-4.2636">
        <ele>56.855102539062</ele>
        <time>2015-12-01T13:20:31Z</time>
      </trkpt>
      <trkpt lat="48.12045" lon="-4.26358">
        <ele>56.855102539062</ele>
        <time>2015-12-01T13:20:36Z</time>
      </trkpt>
      <trkpt lat="48.12044" lon="-4.26357">
        <ele>55.893798828125</ele>
        <time>2015-12-01T13:20:51Z</time>
      </trkpt>
      <trkpt lat="48.12045" lon="-4.26357">
        <ele>55.893798828125</ele>
        <time>2015-12-01T13:20:59Z</time>
      </trkpt>
      <trkpt lat="48.12043" lon="-4.26356">
        <ele>54.932373046875</ele>
        <time>2015-12-01T13:21:17Z</time>
      </trkpt>
      <trkpt lat="48.12042" lon="-4.26362">
        <ele>54.451782226562</ele>
        <time>2015-12-01T13:21:22Z</time>
      </trkpt>
      <trkpt lat="48.1204" lon="-4.26369">
        <ele>54.451782226562</ele>
        <time>2015-12-01T13:21:26Z</time>
      </trkpt>
      <trkpt lat="48.1204" lon="-4.26376">
        <ele>53.97119140625</ele>
        <time>2015-12-01T13:21:30Z</time>
      </trkpt>
      <trkpt lat="48.12037" lon="-4.26388">
        <ele>53.97119140625</ele>
        <time>2015-12-01T13:21:37Z</time>
      </trkpt>
      <trkpt lat="48.12036" lon="-4.26391">
        <ele>53.97119140625</ele>
        <time>2015-12-01T13:21:39Z</time>
      </trkpt>
      <trkpt lat="48.12033" lon="-4.264">
        <ele>54.451782226562</ele>
        <time>2015-12-01T13:21:44Z</time>
      </trkpt>
      <trkpt lat="48.1203" lon="-4.26414">
        <ele>55.4130859375</ele>
        <time>2015-12-01T13:21:52Z</time>
      </trkpt>
      <trkpt lat="48.12027" lon="-4.26428">
        <ele>56.37451171875</ele>
        <time>2015-12-01T13:22:00Z</time>
      </trkpt>
      <trkpt lat="48.12024" lon="-4.2644">
        <ele>57.816528320312</ele>
        <time>2015-12-01T13:22:07Z</time>
      </trkpt>
      <trkpt lat="48.12023" lon="-4.26442">
        <ele>58.297119140625</ele>
        <time>2015-12-01T13:22:08Z</time>
      </trkpt>
      <trkpt lat="48.12024" lon="-4.26442">
        <ele>58.297119140625</ele>
        <time>2015-12-01T13:22:16Z</time>
      </trkpt>
      <trkpt lat="48.12023" lon="-4.26442">
        <ele>57.816528320312</ele>
        <time>2015-12-01T13:22:31Z</time>
      </trkpt>
      <trkpt lat="48.12019" lon="-4.26451">
        <ele>58.777709960938</ele>
        <time>2015-12-01T13:22:36Z</time>
      </trkpt>
      <trkpt lat="48.12017" lon="-4.26458">
        <ele>59.739135742188</ele>
        <time>2015-12-01T13:22:40Z</time>
      </trkpt>
      <trkpt lat="48.12016" lon="-4.26459">
        <ele>60.2197265625</ele>
        <time>2015-12-01T13:22:41Z</time>
      </trkpt>
      <trkpt lat="48.12015" lon="-4.26464">
        <ele>61.181030273438</ele>
        <time>2015-12-01T13:22:44Z</time>
      </trkpt>
      <trkpt lat="48.12013" lon="-4.26472">
        <ele>61.661743164062</ele>
        <time>2015-12-01T13:22:49Z</time>
      </trkpt>
      <trkpt lat="48.12012" lon="-4.26487">
        <ele>61.181030273438</ele>
        <time>2015-12-01T13:22:57Z</time>
      </trkpt>
      <trkpt lat="48.1201" lon="-4.26501">
        <ele>61.661743164062</ele>
        <time>2015-12-01T13:23:05Z</time>
      </trkpt>
      <trkpt lat="48.12007" lon="-4.26513">
        <ele>62.622924804688</ele>
        <time>2015-12-01T13:23:12Z</time>
      </trkpt>
      <trkpt lat="48.12005" lon="-4.26525">
        <ele>63.584350585938</ele>
        <time>2015-12-01T13:23:19Z</time>
      </trkpt>
      <trkpt lat="48.12002" lon="-4.26537">
        <ele>64.545654296875</ele>
        <time>2015-12-01T13:23:26Z</time>
      </trkpt>
      <trkpt lat="48.11999" lon="-4.26551">
        <ele>65.0263671875</ele>
        <time>2015-12-01T13:23:34Z</time>
      </trkpt>
      <trkpt lat="48.11996" lon="-4.26563">
        <ele>65.507080078125</ele>
        <time>2015-12-01T13:23:41Z</time>
      </trkpt>
      <trkpt lat="48.11994" lon="-4.26575">
        <ele>65.507080078125</ele>
        <time>2015-12-01T13:23:48Z</time>
      </trkpt>
      <trkpt lat="48.11991" lon="-4.26585">
        <ele>65.987670898438</ele>
        <time>2015-12-01T13:23:54Z</time>
      </trkpt>
      <trkpt lat="48.11989" lon="-4.26597">
        <ele>66.948974609375</ele>
        <time>2015-12-01T13:24:01Z</time>
      </trkpt>
      <trkpt lat="48.11986" lon="-4.26609">
        <ele>67.910278320312</ele>
        <time>2015-12-01T13:24:08Z</time>
      </trkpt>
      <trkpt lat="48.11983" lon="-4.26621">
        <ele>68.390869140625</ele>
        <time>2015-12-01T13:24:15Z</time>
      </trkpt>
      <trkpt lat="48.1198" lon="-4.26634">
        <ele>68.87158203125</ele>
        <time>2015-12-01T13:24:22Z</time>
      </trkpt>
      <trkpt lat="48.11978" lon="-4.26646">
        <ele>69.352294921875</ele>
        <time>2015-12-01T13:24:29Z</time>
      </trkpt>
      <trkpt lat="48.11977" lon="-4.26658">
        <ele>69.832885742188</ele>
        <time>2015-12-01T13:24:36Z</time>
      </trkpt>
      <trkpt lat="48.11974" lon="-4.26671">
        <ele>69.832885742188</ele>
        <time>2015-12-01T13:24:43Z</time>
      </trkpt>
      <trkpt lat="48.11972" lon="-4.26677">
        <ele>70.3134765625</ele>
        <time>2015-12-01T13:24:47Z</time>
      </trkpt>
      <trkpt lat="48.11969" lon="-4.26688">
        <ele>69.352294921875</ele>
        <time>2015-12-01T13:24:54Z</time>
      </trkpt>
      <trkpt lat="48.11969" lon="-4.26691">
        <ele>68.87158203125</ele>
        <time>2015-12-01T13:24:56Z</time>
      </trkpt>
      <trkpt lat="48.11968" lon="-4.26694">
        <ele>68.390869140625</ele>
        <time>2015-12-01T13:24:58Z</time>
      </trkpt>
      <trkpt lat="48.11964" lon="-4.26697">
        <ele>67.910278320312</ele>
        <time>2015-12-01T13:25:02Z</time>
      </trkpt>
      <trkpt lat="48.11958" lon="-4.26697">
        <ele>66.948974609375</ele>
        <time>2015-12-01T13:25:07Z</time>
      </trkpt>
      <trkpt lat="48.11955" lon="-4.26696">
        <ele>66.46826171875</ele>
        <time>2015-12-01T13:25:10Z</time>
      </trkpt>
      <trkpt lat="48.1195" lon="-4.26694">
        <ele>66.46826171875</ele>
        <time>2015-12-01T13:25:15Z</time>
      </trkpt>
      <trkpt lat="48.11949" lon="-4.26694">
        <ele>66.46826171875</ele>
        <time>2015-12-01T13:25:16Z</time>
      </trkpt>
      <trkpt lat="48.1194" lon="-4.26689">
        <ele>65.987670898438</ele>
        <time>2015-12-01T13:25:23Z</time>
      </trkpt>
      <trkpt lat="48.11937" lon="-4.26688">
        <ele>65.0263671875</ele>
        <time>2015-12-01T13:25:27Z</time>
      </trkpt>
      <trkpt lat="48.1193" lon="-4.26684">
        <ele>64.545654296875</ele>
        <time>2015-12-01T13:25:33Z</time>
      </trkpt>
      <trkpt lat="48.11925" lon="-4.26682">
        <ele>64.065063476562</ele>
        <time>2015-12-01T13:25:38Z</time>
      </trkpt>
      <trkpt lat="48.11919" lon="-4.2668">
        <ele>64.065063476562</ele>
        <time>2015-12-01T13:25:44Z</time>
      </trkpt>
      <trkpt lat="48.11915" lon="-4.26679">
        <ele>64.065063476562</ele>
        <time>2015-12-01T13:25:47Z</time>
      </trkpt>
      <trkpt lat="48.1191" lon="-4.26676">
        <ele>64.545654296875</ele>
        <time>2015-12-01T13:25:51Z</time>
      </trkpt>
      <trkpt lat="48.11904" lon="-4.26675">
        <ele>64.545654296875</ele>
        <time>2015-12-01T13:25:56Z</time>
      </trkpt>
      <trkpt lat="48.119" lon="-4.26674">
        <ele>64.065063476562</ele>
        <time>2015-12-01T13:26:00Z</time>
      </trkpt>
      <trkpt lat="48.11891" lon="-4.2667">
        <ele>64.545654296875</ele>
        <time>2015-12-01T13:26:07Z</time>
      </trkpt>
      <trkpt lat="48.11883" lon="-4.26667">
        <ele>63.584350585938</ele>
        <time>2015-12-01T13:26:14Z</time>
      </trkpt>
      <trkpt lat="48.1188" lon="-4.26666">
        <ele>63.103637695312</ele>
        <time>2015-12-01T13:26:17Z</time>
      </trkpt>
      <trkpt lat="48.11873" lon="-4.26664">
        <ele>62.622924804688</ele>
        <time>2015-12-01T13:26:23Z</time>
      </trkpt>
      <trkpt lat="48.11872" lon="-4.26663">
        <ele>63.103637695312</ele>
        <time>2015-12-01T13:26:24Z</time>
      </trkpt>
      <trkpt lat="48.11863" lon="-4.26659">
        <ele>61.181030273438</ele>
        <time>2015-12-01T13:26:33Z</time>
      </trkpt>
      <trkpt lat="48.11855" lon="-4.26656">
        <ele>62.622924804688</ele>
        <time>2015-12-01T13:26:40Z</time>
      </trkpt>
      <trkpt lat="48.11847" lon="-4.26651">
        <ele>62.622924804688</ele>
        <time>2015-12-01T13:26:46Z</time>
      </trkpt>
      <trkpt lat="48.11837" lon="-4.26646">
        <ele>62.622924804688</ele>
        <time>2015-12-01T13:26:53Z</time>
      </trkpt>
      <trkpt lat="48.11836" lon="-4.26645">
        <ele>62.622924804688</ele>
        <time>2015-12-01T13:26:54Z</time>
      </trkpt>
      <trkpt lat="48.11829" lon="-4.2664">
        <ele>63.103637695312</ele>
        <time>2015-12-01T13:27:03Z</time>
      </trkpt>
      <trkpt lat="48.11823" lon="-4.26636">
        <ele>63.584350585938</ele>
        <time>2015-12-01T13:27:08Z</time>
      </trkpt>
      <trkpt lat="48.11817" lon="-4.26631">
        <ele>63.103637695312</ele>
        <time>2015-12-01T13:27:14Z</time>
      </trkpt>
      <trkpt lat="48.11814" lon="-4.26628">
        <ele>63.584350585938</ele>
        <time>2015-12-01T13:27:17Z</time>
      </trkpt>
      <trkpt lat="48.11807" lon="-4.2662">
        <ele>63.103637695312</ele>
        <time>2015-12-01T13:27:24Z</time>
      </trkpt>
      <trkpt lat="48.118" lon="-4.26613">
        <ele>63.584350585938</ele>
        <time>2015-12-01T13:27:29Z</time>
      </trkpt>
      <trkpt lat="48.11795" lon="-4.26608">
        <ele>64.545654296875</ele>
        <time>2015-12-01T13:27:34Z</time>
      </trkpt>
      <trkpt lat="48.11787" lon="-4.26601">
        <ele>65.507080078125</ele>
        <time>2015-12-01T13:27:42Z</time>
      </trkpt>
      <trkpt lat="48.11779" lon="-4.26594">
        <ele>64.545654296875</ele>
        <time>2015-12-01T13:27:50Z</time>
      </trkpt>
      <trkpt lat="48.11774" lon="-4.26589">
        <ele>65.0263671875</ele>
        <time>2015-12-01T13:27:55Z</time>
      </trkpt>
      <trkpt lat="48.11767" lon="-4.26584">
        <ele>64.545654296875</ele>
        <time>2015-12-01T13:28:02Z</time>
      </trkpt>
      <trkpt lat="48.11761" lon="-4.26579">
        <ele>64.065063476562</ele>
        <time>2015-12-01T13:28:08Z</time>
      </trkpt>
      <trkpt lat="48.11753" lon="-4.26574">
        <ele>64.065063476562</ele>
        <time>2015-12-01T13:28:15Z</time>
      </trkpt>
      <trkpt lat="48.1175" lon="-4.26573">
        <ele>63.584350585938</ele>
        <time>2015-12-01T13:28:18Z</time>
      </trkpt>
      <trkpt lat="48.11746" lon="-4.26573">
        <ele>63.103637695312</ele>
        <time>2015-12-01T13:28:25Z</time>
      </trkpt>
      <trkpt lat="48.1174" lon="-4.2657">
        <ele>64.545654296875</ele>
        <time>2015-12-01T13:28:32Z</time>
      </trkpt>
      <trkpt lat="48.11736" lon="-4.26567">
        <ele>65.507080078125</ele>
        <time>2015-12-01T13:28:35Z</time>
      </trkpt>
      <trkpt lat="48.11729" lon="-4.26564">
        <ele>65.507080078125</ele>
        <time>2015-12-01T13:28:40Z</time>
      </trkpt>
      <trkpt lat="48.11719" lon="-4.26557">
        <ele>64.545654296875</ele>
        <time>2015-12-01T13:28:48Z</time>
      </trkpt>
      <trkpt lat="48.11713" lon="-4.26556">
        <ele>63.584350585938</ele>
        <time>2015-12-01T13:28:53Z</time>
      </trkpt>
      <trkpt lat="48.11707" lon="-4.26552">
        <ele>63.584350585938</ele>
        <time>2015-12-01T13:28:59Z</time>
      </trkpt>
      <trkpt lat="48.11704" lon="-4.26549">
        <ele>64.065063476562</ele>
        <time>2015-12-01T13:29:08Z</time>
      </trkpt>
      <trkpt lat="48.11703" lon="-4.26548">
        <ele>63.584350585938</ele>
        <time>2015-12-01T13:29:15Z</time>
      </trkpt>
      <trkpt lat="48.11701" lon="-4.26547">
        <ele>63.103637695312</ele>
        <time>2015-12-01T13:29:25Z</time>
      </trkpt>
      <trkpt lat="48.11697" lon="-4.26543">
        <ele>63.584350585938</ele>
        <time>2015-12-01T13:29:30Z</time>
      </trkpt>
      <trkpt lat="48.11693" lon="-4.26541">
        <ele>63.584350585938</ele>
        <time>2015-12-01T13:29:34Z</time>
      </trkpt>
      <trkpt lat="48.11688" lon="-4.26537">
        <ele>63.103637695312</ele>
        <time>2015-12-01T13:29:39Z</time>
      </trkpt>
      <trkpt lat="48.11678" lon="-4.26533">
        <ele>63.103637695312</ele>
        <time>2015-12-01T13:29:48Z</time>
      </trkpt>
      <trkpt lat="48.1167" lon="-4.26531">
        <ele>62.622924804688</ele>
        <time>2015-12-01T13:29:54Z</time>
      </trkpt>
      <trkpt lat="48.1166" lon="-4.26525">
        <ele>61.661743164062</ele>
        <time>2015-12-01T13:30:02Z</time>
      </trkpt>
      <trkpt lat="48.11653" lon="-4.26521">
        <ele>62.622924804688</ele>
        <time>2015-12-01T13:30:07Z</time>
      </trkpt>
      <trkpt lat="48.11647" lon="-4.26519">
        <ele>62.622924804688</ele>
        <time>2015-12-01T13:30:11Z</time>
      </trkpt>
      <trkpt lat="48.11643" lon="-4.26516">
        <ele>63.103637695312</ele>
        <time>2015-12-01T13:30:14Z</time>
      </trkpt>
      <trkpt lat="48.11638" lon="-4.26513">
        <ele>63.103637695312</ele>
        <time>2015-12-01T13:30:18Z</time>
      </trkpt>
      <trkpt lat="48.11628" lon="-4.26509">
        <ele>63.103637695312</ele>
        <time>2015-12-01T13:30:26Z</time>
      </trkpt>
      <trkpt lat="48.1162" lon="-4.26507">
        <ele>63.103637695312</ele>
        <time>2015-12-01T13:30:33Z</time>
      </trkpt>
      <trkpt lat="48.11614" lon="-4.26504">
        <ele>62.622924804688</ele>
        <time>2015-12-01T13:30:39Z</time>
      </trkpt>
      <trkpt lat="48.11607" lon="-4.26503">
        <ele>62.622924804688</ele>
        <time>2015-12-01T13:30:46Z</time>
      </trkpt>
      <trkpt lat="48.11602" lon="-4.26501">
        <ele>62.142333984375</ele>
        <time>2015-12-01T13:30:50Z</time>
      </trkpt>
      <trkpt lat="48.11595" lon="-4.26498">
        <ele>61.181030273438</ele>
        <time>2015-12-01T13:30:57Z</time>
      </trkpt>
      <trkpt lat="48.11587" lon="-4.26493">
        <ele>59.739135742188</ele>
        <time>2015-12-01T13:31:04Z</time>
      </trkpt>
      <trkpt lat="48.11585" lon="-4.26492">
        <ele>59.258422851562</ele>
        <time>2015-12-01T13:31:06Z</time>
      </trkpt>
      <trkpt lat="48.1158" lon="-4.2649">
        <ele>58.777709960938</ele>
        <time>2015-12-01T13:31:11Z</time>
      </trkpt>
      <trkpt lat="48.11569" lon="-4.26487">
        <ele>59.258422851562</ele>
        <time>2015-12-01T13:31:20Z</time>
      </trkpt>
      <trkpt lat="48.11562" lon="-4.26482">
        <ele>59.739135742188</ele>
        <time>2015-12-01T13:31:27Z</time>
      </trkpt>
      <trkpt lat="48.11557" lon="-4.26484">
        <ele>59.739135742188</ele>
        <time>2015-12-01T13:31:31Z</time>
      </trkpt>
      <trkpt lat="48.11552" lon="-4.26482">
        <ele>59.739135742188</ele>
        <time>2015-12-01T13:31:36Z</time>
      </trkpt>
      <trkpt lat="48.11542" lon="-4.26469">
        <ele>60.700317382812</ele>
        <time>2015-12-01T13:31:45Z</time>
      </trkpt>
      <trkpt lat="48.1154" lon="-4.26466">
        <ele>61.181030273438</ele>
        <time>2015-12-01T13:31:47Z</time>
      </trkpt>
      <trkpt lat="48.11534" lon="-4.26458">
        <ele>61.181030273438</ele>
        <time>2015-12-01T13:31:53Z</time>
      </trkpt>
      <trkpt lat="48.11532" lon="-4.26456">
        <ele>61.661743164062</ele>
        <time>2015-12-01T13:31:55Z</time>
      </trkpt>
      <trkpt lat="48.11527" lon="-4.26448">
        <ele>61.181030273438</ele>
        <time>2015-12-01T13:32:01Z</time>
      </trkpt>
      <trkpt lat="48.1152" lon="-4.26441">
        <ele>62.142333984375</ele>
        <time>2015-12-01T13:32:07Z</time>
      </trkpt>
      <trkpt lat="48.11518" lon="-4.26438">
        <ele>61.661743164062</ele>
        <time>2015-12-01T13:32:09Z</time>
      </trkpt>
      <trkpt lat="48.1151" lon="-4.26429">
        <ele>61.661743164062</ele>
        <time>2015-12-01T13:32:16Z</time>
      </trkpt>
      <trkpt lat="48.11502" lon="-4.26419">
        <ele>62.142333984375</ele>
        <time>2015-12-01T13:32:24Z</time>
      </trkpt>
      <trkpt lat="48.115" lon="-4.26417">
        <ele>62.142333984375</ele>
        <time>2015-12-01T13:32:26Z</time>
      </trkpt>
      <trkpt lat="48.11494" lon="-4.2641">
        <ele>62.622924804688</ele>
        <time>2015-12-01T13:32:32Z</time>
      </trkpt>
      <trkpt lat="48.11487" lon="-4.26402">
        <ele>63.103637695312</ele>
        <time>2015-12-01T13:32:40Z</time>
      </trkpt>
      <trkpt lat="48.11481" lon="-4.26393">
        <ele>63.584350585938</ele>
        <time>2015-12-01T13:32:47Z</time>
      </trkpt>
      <trkpt lat="48.11474" lon="-4.26386">
        <ele>63.584350585938</ele>
        <time>2015-12-01T13:32:54Z</time>
      </trkpt>
      <trkpt lat="48.11473" lon="-4.26385">
        <ele>63.584350585938</ele>
        <time>2015-12-01T13:32:55Z</time>
      </trkpt>
      <trkpt lat="48.11467" lon="-4.26379">
        <ele>64.065063476562</ele>
        <time>2015-12-01T13:33:01Z</time>
      </trkpt>
      <trkpt lat="48.11462" lon="-4.26372">
        <ele>64.065063476562</ele>
        <time>2015-12-01T13:33:07Z</time>
      </trkpt>
      <trkpt lat="48.11453" lon="-4.26363">
        <ele>64.065063476562</ele>
        <time>2015-12-01T13:33:16Z</time>
      </trkpt>
      <trkpt lat="48.11443" lon="-4.26353">
        <ele>64.065063476562</ele>
        <time>2015-12-01T13:33:25Z</time>
      </trkpt>
      <trkpt lat="48.11436" lon="-4.26343">
        <ele>64.065063476562</ele>
        <time>2015-12-01T13:33:33Z</time>
      </trkpt>
      <trkpt lat="48.11428" lon="-4.26333">
        <ele>64.065063476562</ele>
        <time>2015-12-01T13:33:41Z</time>
      </trkpt>
      <trkpt lat="48.11421" lon="-4.26324">
        <ele>63.584350585938</ele>
        <time>2015-12-01T13:33:49Z</time>
      </trkpt>
      <trkpt lat="48.11412" lon="-4.26314">
        <ele>63.103637695312</ele>
        <time>2015-12-01T13:33:58Z</time>
      </trkpt>
      <trkpt lat="48.11402" lon="-4.26303">
        <ele>62.622924804688</ele>
        <time>2015-12-01T13:34:08Z</time>
      </trkpt>
      <trkpt lat="48.11393" lon="-4.26291">
        <ele>62.622924804688</ele>
        <time>2015-12-01T13:34:18Z</time>
      </trkpt>
      <trkpt lat="48.11384" lon="-4.26278">
        <ele>63.103637695312</ele>
        <time>2015-12-01T13:34:28Z</time>
      </trkpt>
      <trkpt lat="48.11375" lon="-4.26264">
        <ele>63.103637695312</ele>
        <time>2015-12-01T13:34:38Z</time>
      </trkpt>
      <trkpt lat="48.11367" lon="-4.26251">
        <ele>63.103637695312</ele>
        <time>2015-12-01T13:34:47Z</time>
      </trkpt>
      <trkpt lat="48.11364" lon="-4.26243">
        <ele>63.584350585938</ele>
        <time>2015-12-01T13:34:53Z</time>
      </trkpt>
      <trkpt lat="48.11359" lon="-4.26234">
        <ele>63.584350585938</ele>
        <time>2015-12-01T13:34:59Z</time>
      </trkpt>
      <trkpt lat="48.11353" lon="-4.26223">
        <ele>63.584350585938</ele>
        <time>2015-12-01T13:35:07Z</time>
      </trkpt>
      <trkpt lat="48.11349" lon="-4.26213">
        <ele>63.103637695312</ele>
        <time>2015-12-01T13:35:14Z</time>
      </trkpt>
      <trkpt lat="48.11341" lon="-4.26204">
        <ele>62.622924804688</ele>
        <time>2015-12-01T13:35:22Z</time>
      </trkpt>
      <trkpt lat="48.11333" lon="-4.26202">
        <ele>61.661743164062</ele>
        <time>2015-12-01T13:35:29Z</time>
      </trkpt>
      <trkpt lat="48.11329" lon="-4.26206">
        <ele>61.181030273438</ele>
        <time>2015-12-01T13:35:33Z</time>
      </trkpt>
      <trkpt lat="48.11324" lon="-4.26214">
        <ele>60.700317382812</ele>
        <time>2015-12-01T13:35:38Z</time>
      </trkpt>
      <trkpt lat="48.11318" lon="-4.26226">
        <ele>59.739135742188</ele>
        <time>2015-12-01T13:35:46Z</time>
      </trkpt>
      <trkpt lat="48.1131" lon="-4.26237">
        <ele>59.739135742188</ele>
        <time>2015-12-01T13:35:54Z</time>
      </trkpt>
      <trkpt lat="48.11302" lon="-4.26249">
        <ele>60.700317382812</ele>
        <time>2015-12-01T13:36:03Z</time>
      </trkpt>
      <trkpt lat="48.11294" lon="-4.2626">
        <ele>59.739135742188</ele>
        <time>2015-12-01T13:36:11Z</time>
      </trkpt>
      <trkpt lat="48.11286" lon="-4.2627">
        <ele>60.2197265625</ele>
        <time>2015-12-01T13:36:19Z</time>
      </trkpt>
      <trkpt lat="48.11285" lon="-4.26272">
        <ele>60.700317382812</ele>
        <time>2015-12-01T13:36:21Z</time>
      </trkpt>
      <trkpt lat="48.11281" lon="-4.26278">
        <ele>60.2197265625</ele>
        <time>2015-12-01T13:36:25Z</time>
      </trkpt>
      <trkpt lat="48.11277" lon="-4.26283">
        <ele>61.181030273438</ele>
        <time>2015-12-01T13:36:29Z</time>
      </trkpt>
      <trkpt lat="48.11274" lon="-4.26289">
        <ele>60.700317382812</ele>
        <time>2015-12-01T13:36:33Z</time>
      </trkpt>
      <trkpt lat="48.11269" lon="-4.26293">
        <ele>62.142333984375</ele>
        <time>2015-12-01T13:36:37Z</time>
      </trkpt>
      <trkpt lat="48.11265" lon="-4.263">
        <ele>62.142333984375</ele>
        <time>2015-12-01T13:36:42Z</time>
      </trkpt>
      <trkpt lat="48.11258" lon="-4.2631">
        <ele>62.622924804688</ele>
        <time>2015-12-01T13:36:49Z</time>
      </trkpt>
      <trkpt lat="48.11252" lon="-4.26319">
        <ele>62.142333984375</ele>
        <time>2015-12-01T13:36:55Z</time>
      </trkpt>
      <trkpt lat="48.11246" lon="-4.26333">
        <ele>62.142333984375</ele>
        <time>2015-12-01T13:37:04Z</time>
      </trkpt>
      <trkpt lat="48.11242" lon="-4.26343">
        <ele>62.622924804688</ele>
        <time>2015-12-01T13:37:10Z</time>
      </trkpt>
      <trkpt lat="48.11238" lon="-4.26357">
        <ele>61.661743164062</ele>
        <time>2015-12-01T13:37:17Z</time>
      </trkpt>
      <trkpt lat="48.11237" lon="-4.26364">
        <ele>61.661743164062</ele>
        <time>2015-12-01T13:37:21Z</time>
      </trkpt>
      <trkpt lat="48.11237" lon="-4.26373">
        <ele>61.181030273438</ele>
        <time>2015-12-01T13:37:25Z</time>
      </trkpt>
      <trkpt lat="48.11236" lon="-4.26394">
        <ele>60.2197265625</ele>
        <time>2015-12-01T13:37:36Z</time>
      </trkpt>
      <trkpt lat="48.11237" lon="-4.2641">
        <ele>59.739135742188</ele>
        <time>2015-12-01T13:37:44Z</time>
      </trkpt>
      <trkpt lat="48.11238" lon="-4.26417">
        <ele>60.2197265625</ele>
        <time>2015-12-01T13:37:49Z</time>
      </trkpt>
      <trkpt lat="48.11239" lon="-4.2642">
        <ele>60.2197265625</ele>
        <time>2015-12-01T13:37:51Z</time>
      </trkpt>
      <trkpt lat="48.1124" lon="-4.26437">
        <ele>59.739135742188</ele>
        <time>2015-12-01T13:37:59Z</time>
      </trkpt>
      <trkpt lat="48.11242" lon="-4.26449">
        <ele>59.258422851562</ele>
        <time>2015-12-01T13:38:05Z</time>
      </trkpt>
      <trkpt lat="48.11243" lon="-4.26462">
        <ele>58.777709960938</ele>
        <time>2015-12-01T13:38:12Z</time>
      </trkpt>
      <trkpt lat="48.11244" lon="-4.26473">
        <ele>57.816528320312</ele>
        <time>2015-12-01T13:38:17Z</time>
      </trkpt>
      <trkpt lat="48.11245" lon="-4.26482">
        <ele>57.335815429688</ele>
        <time>2015-12-01T13:38:22Z</time>
      </trkpt>
      <trkpt lat="48.11245" lon="-4.26487">
        <ele>57.816528320312</ele>
        <time>2015-12-01T13:38:24Z</time>
      </trkpt>
      <trkpt lat="48.11245" lon="-4.26501">
        <ele>58.297119140625</ele>
        <time>2015-12-01T13:38:31Z</time>
      </trkpt>
      <trkpt lat="48.11248" lon="-4.26513">
        <ele>58.297119140625</ele>
        <time>2015-12-01T13:38:38Z</time>
      </trkpt>
      <trkpt lat="48.11249" lon="-4.26521">
        <ele>58.777709960938</ele>
        <time>2015-12-01T13:38:42Z</time>
      </trkpt>
      <trkpt lat="48.11251" lon="-4.26534">
        <ele>58.297119140625</ele>
        <time>2015-12-01T13:38:49Z</time>
      </trkpt>
      <trkpt lat="48.11251" lon="-4.26538">
        <ele>58.297119140625</ele>
        <time>2015-12-01T13:38:51Z</time>
      </trkpt>
      <trkpt lat="48.11252" lon="-4.26545">
        <ele>57.816528320312</ele>
        <time>2015-12-01T13:38:55Z</time>
      </trkpt>
      <trkpt lat="48.11254" lon="-4.26561">
        <ele>57.816528320312</ele>
        <time>2015-12-01T13:39:03Z</time>
      </trkpt>
      <trkpt lat="48.11255" lon="-4.2658">
        <ele>57.816528320312</ele>
        <time>2015-12-01T13:39:12Z</time>
      </trkpt>
      <trkpt lat="48.11254" lon="-4.26599">
        <ele>57.816528320312</ele>
        <time>2015-12-01T13:39:21Z</time>
      </trkpt>
      <trkpt lat="48.11253" lon="-4.26618">
        <ele>58.297119140625</ele>
        <time>2015-12-01T13:39:31Z</time>
      </trkpt>
      <trkpt lat="48.11251" lon="-4.26632">
        <ele>57.816528320312</ele>
        <time>2015-12-01T13:39:39Z</time>
      </trkpt>
      <trkpt lat="48.11248" lon="-4.26647">
        <ele>57.335815429688</ele>
        <time>2015-12-01T13:39:47Z</time>
      </trkpt>
      <trkpt lat="48.11246" lon="-4.26658">
        <ele>56.855102539062</ele>
        <time>2015-12-01T13:39:53Z</time>
      </trkpt>
      <trkpt lat="48.11245" lon="-4.26662">
        <ele>57.335815429688</ele>
        <time>2015-12-01T13:39:55Z</time>
      </trkpt>
      <trkpt lat="48.11241" lon="-4.26676">
        <ele>56.855102539062</ele>
        <time>2015-12-01T13:40:03Z</time>
      </trkpt>
      <trkpt lat="48.11237" lon="-4.2669">
        <ele>56.855102539062</ele>
        <time>2015-12-01T13:40:11Z</time>
      </trkpt>
      <trkpt lat="48.11232" lon="-4.26708">
        <ele>57.816528320312</ele>
        <time>2015-12-01T13:40:21Z</time>
      </trkpt>
      <trkpt lat="48.11229" lon="-4.26721">
        <ele>58.297119140625</ele>
        <time>2015-12-01T13:40:28Z</time>
      </trkpt>
      <trkpt lat="48.11227" lon="-4.26736">
        <ele>58.777709960938</ele>
        <time>2015-12-01T13:40:36Z</time>
      </trkpt>
      <trkpt lat="48.11226" lon="-4.26751">
        <ele>59.739135742188</ele>
        <time>2015-12-01T13:40:44Z</time>
      </trkpt>
      <trkpt lat="48.11227" lon="-4.26769">
        <ele>60.2197265625</ele>
        <time>2015-12-01T13:40:53Z</time>
      </trkpt>
      <trkpt lat="48.11228" lon="-4.26782">
        <ele>60.2197265625</ele>
        <time>2015-12-01T13:41:00Z</time>
      </trkpt>
      <trkpt lat="48.11229" lon="-4.26793">
        <ele>59.739135742188</ele>
        <time>2015-12-01T13:41:06Z</time>
      </trkpt>
      <trkpt lat="48.1123" lon="-4.26801">
        <ele>59.739135742188</ele>
        <time>2015-12-01T13:41:10Z</time>
      </trkpt>
      <trkpt lat="48.11232" lon="-4.26819">
        <ele>58.777709960938</ele>
        <time>2015-12-01T13:41:19Z</time>
      </trkpt>
      <trkpt lat="48.11233" lon="-4.26827">
        <ele>58.297119140625</ele>
        <time>2015-12-01T13:41:23Z</time>
      </trkpt>
      <trkpt lat="48.11234" lon="-4.26842">
        <ele>59.739135742188</ele>
        <time>2015-12-01T13:41:30Z</time>
      </trkpt>
      <trkpt lat="48.11235" lon="-4.26857">
        <ele>60.2197265625</ele>
        <time>2015-12-01T13:41:38Z</time>
      </trkpt>
      <trkpt lat="48.11237" lon="-4.26872">
        <ele>59.739135742188</ele>
        <time>2015-12-01T13:41:46Z</time>
      </trkpt>
      <trkpt lat="48.11239" lon="-4.26885">
        <ele>60.2197265625</ele>
        <time>2015-12-01T13:41:53Z</time>
      </trkpt>
      <trkpt lat="48.1124" lon="-4.26895">
        <ele>60.700317382812</ele>
        <time>2015-12-01T13:41:57Z</time>
      </trkpt>
      <trkpt lat="48.11241" lon="-4.26908">
        <ele>61.661743164062</ele>
        <time>2015-12-01T13:42:04Z</time>
      </trkpt>
      <trkpt lat="48.11242" lon="-4.26918">
        <ele>61.661743164062</ele>
        <time>2015-12-01T13:42:10Z</time>
      </trkpt>
      <trkpt lat="48.11244" lon="-4.26927">
        <ele>61.661743164062</ele>
        <time>2015-12-01T13:42:15Z</time>
      </trkpt>
      <trkpt lat="48.11246" lon="-4.2694">
        <ele>62.622924804688</ele>
        <time>2015-12-01T13:42:22Z</time>
      </trkpt>
      <trkpt lat="48.11247" lon="-4.2695">
        <ele>63.103637695312</ele>
        <time>2015-12-01T13:42:28Z</time>
      </trkpt>
      <trkpt lat="48.11248" lon="-4.26951">
        <ele>63.103637695312</ele>
        <time>2015-12-01T13:42:29Z</time>
      </trkpt>
      <trkpt lat="48.11249" lon="-4.26958">
        <ele>63.103637695312</ele>
        <time>2015-12-01T13:42:33Z</time>
      </trkpt>
      <trkpt lat="48.1125" lon="-4.26971">
        <ele>64.545654296875</ele>
        <time>2015-12-01T13:42:40Z</time>
      </trkpt>
      <trkpt lat="48.11253" lon="-4.26986">
        <ele>64.065063476562</ele>
        <time>2015-12-01T13:42:48Z</time>
      </trkpt>
      <trkpt lat="48.11256" lon="-4.27001">
        <ele>63.584350585938</ele>
        <time>2015-12-01T13:42:57Z</time>
      </trkpt>
      <trkpt lat="48.11259" lon="-4.27014">
        <ele>63.103637695312</ele>
        <time>2015-12-01T13:43:05Z</time>
      </trkpt>
      <trkpt lat="48.1126" lon="-4.27028">
        <ele>63.584350585938</ele>
        <time>2015-12-01T13:43:13Z</time>
      </trkpt>
      <trkpt lat="48.1126" lon="-4.27029">
        <ele>64.065063476562</ele>
        <time>2015-12-01T13:43:14Z</time>
      </trkpt>
      <trkpt lat="48.1126" lon="-4.27037">
        <ele>64.545654296875</ele>
        <time>2015-12-01T13:43:18Z</time>
      </trkpt>
      <trkpt lat="48.11259" lon="-4.2705">
        <ele>65.0263671875</ele>
        <time>2015-12-01T13:43:26Z</time>
      </trkpt>
      <trkpt lat="48.11258" lon="-4.27059">
        <ele>65.987670898438</ele>
        <time>2015-12-01T13:43:31Z</time>
      </trkpt>
      <trkpt lat="48.11255" lon="-4.27077">
        <ele>64.545654296875</ele>
        <time>2015-12-01T13:43:40Z</time>
      </trkpt>
      <trkpt lat="48.11253" lon="-4.27087">
        <ele>65.0263671875</ele>
        <time>2015-12-01T13:43:45Z</time>
      </trkpt>
      <trkpt lat="48.11249" lon="-4.27105">
        <ele>64.065063476562</ele>
        <time>2015-12-01T13:43:54Z</time>
      </trkpt>
      <trkpt lat="48.11245" lon="-4.27125">
        <ele>63.103637695312</ele>
        <time>2015-12-01T13:44:06Z</time>
      </trkpt>
      <trkpt lat="48.11241" lon="-4.27144">
        <ele>63.103637695312</ele>
        <time>2015-12-01T13:44:16Z</time>
      </trkpt>
      <trkpt lat="48.11238" lon="-4.2716">
        <ele>63.103637695312</ele>
        <time>2015-12-01T13:44:25Z</time>
      </trkpt>
      <trkpt lat="48.11235" lon="-4.27176">
        <ele>62.142333984375</ele>
        <time>2015-12-01T13:44:33Z</time>
      </trkpt>
      <trkpt lat="48.11232" lon="-4.27194">
        <ele>62.142333984375</ele>
        <time>2015-12-01T13:44:42Z</time>
      </trkpt>
      <trkpt lat="48.1123" lon="-4.27207">
        <ele>62.142333984375</ele>
        <time>2015-12-01T13:44:49Z</time>
      </trkpt>
      <trkpt lat="48.11229" lon="-4.27213">
        <ele>62.142333984375</ele>
        <time>2015-12-01T13:44:52Z</time>
      </trkpt>
      <trkpt lat="48.11227" lon="-4.27222">
        <ele>61.661743164062</ele>
        <time>2015-12-01T13:44:57Z</time>
      </trkpt>
      <trkpt lat="48.11225" lon="-4.27238">
        <ele>61.661743164062</ele>
        <time>2015-12-01T13:45:06Z</time>
      </trkpt>
      <trkpt lat="48.11222" lon="-4.27257">
        <ele>62.622924804688</ele>
        <time>2015-12-01T13:45:16Z</time>
      </trkpt>
      <trkpt lat="48.1122" lon="-4.27268">
        <ele>62.142333984375</ele>
        <time>2015-12-01T13:45:22Z</time>
      </trkpt>
      <trkpt lat="48.1122" lon="-4.27274">
        <ele>62.622924804688</ele>
        <time>2015-12-01T13:45:27Z</time>
      </trkpt>
      <trkpt lat="48.1122" lon="-4.27275">
        <ele>62.622924804688</ele>
        <time>2015-12-01T13:45:28Z</time>
      </trkpt>
      <trkpt lat="48.11226" lon="-4.2729">
        <ele>63.103637695312</ele>
        <time>2015-12-01T13:45:37Z</time>
      </trkpt>
      <trkpt lat="48.1123" lon="-4.27298">
        <ele>61.661743164062</ele>
        <time>2015-12-01T13:45:43Z</time>
      </trkpt>
      <trkpt lat="48.1123" lon="-4.273">
        <ele>61.661743164062</ele>
        <time>2015-12-01T13:45:44Z</time>
      </trkpt>
      <trkpt lat="48.11231" lon="-4.2731">
        <ele>63.584350585938</ele>
        <time>2015-12-01T13:45:50Z</time>
      </trkpt>
      <trkpt lat="48.11232" lon="-4.27319">
        <ele>65.0263671875</ele>
        <time>2015-12-01T13:45:55Z</time>
      </trkpt>
      <trkpt lat="48.11235" lon="-4.27332">
        <ele>65.507080078125</ele>
        <time>2015-12-01T13:46:03Z</time>
      </trkpt>
      <trkpt lat="48.11236" lon="-4.27336">
        <ele>65.507080078125</ele>
        <time>2015-12-01T13:46:05Z</time>
      </trkpt>
      <trkpt lat="48.11239" lon="-4.27352">
        <ele>65.987670898438</ele>
        <time>2015-12-01T13:46:14Z</time>
      </trkpt>
      <trkpt lat="48.1124" lon="-4.27366">
        <ele>65.507080078125</ele>
        <time>2015-12-01T13:46:21Z</time>
      </trkpt>
      <trkpt lat="48.11241" lon="-4.27378">
        <ele>65.0263671875</ele>
        <time>2015-12-01T13:46:28Z</time>
      </trkpt>
      <trkpt lat="48.11241" lon="-4.27397">
        <ele>65.0263671875</ele>
        <time>2015-12-01T13:46:38Z</time>
      </trkpt>
      <trkpt lat="48.11241" lon="-4.27409">
        <ele>64.545654296875</ele>
        <time>2015-12-01T13:46:44Z</time>
      </trkpt>
      <trkpt lat="48.11238" lon="-4.27422">
        <ele>65.507080078125</ele>
        <time>2015-12-01T13:46:51Z</time>
      </trkpt>
      <trkpt lat="48.11238" lon="-4.27424">
        <ele>65.0263671875</ele>
        <time>2015-12-01T13:46:52Z</time>
      </trkpt>
      <trkpt lat="48.11236" lon="-4.27434">
        <ele>65.987670898438</ele>
        <time>2015-12-01T13:46:58Z</time>
      </trkpt>
      <trkpt lat="48.11234" lon="-4.27443">
        <ele>65.987670898438</ele>
        <time>2015-12-01T13:47:03Z</time>
      </trkpt>
      <trkpt lat="48.11232" lon="-4.27446">
        <ele>65.987670898438</ele>
        <time>2015-12-01T13:47:05Z</time>
      </trkpt>
      <trkpt lat="48.11228" lon="-4.27458">
        <ele>65.0263671875</ele>
        <time>2015-12-01T13:47:12Z</time>
      </trkpt>
      <trkpt lat="48.11223" lon="-4.27469">
        <ele>64.545654296875</ele>
        <time>2015-12-01T13:47:19Z</time>
      </trkpt>
      <trkpt lat="48.11219" lon="-4.27478">
        <ele>64.065063476562</ele>
        <time>2015-12-01T13:47:25Z</time>
      </trkpt>
      <trkpt lat="48.11213" lon="-4.27491">
        <ele>64.545654296875</ele>
        <time>2015-12-01T13:47:33Z</time>
      </trkpt>
      <trkpt lat="48.11207" lon="-4.275">
        <ele>64.065063476562</ele>
        <time>2015-12-01T13:47:39Z</time>
      </trkpt>
      <trkpt lat="48.11201" lon="-4.27514">
        <ele>62.142333984375</ele>
        <time>2015-12-01T13:47:47Z</time>
      </trkpt>
      <trkpt lat="48.11195" lon="-4.27525">
        <ele>60.2197265625</ele>
        <time>2015-12-01T13:47:55Z</time>
      </trkpt>
      <trkpt lat="48.11192" lon="-4.27534">
        <ele>60.2197265625</ele>
        <time>2015-12-01T13:48:00Z</time>
      </trkpt>
      <trkpt lat="48.11187" lon="-4.27545">
        <ele>59.739135742188</ele>
        <time>2015-12-01T13:48:07Z</time>
      </trkpt>
      <trkpt lat="48.1118" lon="-4.27559">
        <ele>59.739135742188</ele>
        <time>2015-12-01T13:48:16Z</time>
      </trkpt>
      <trkpt lat="48.11175" lon="-4.27569">
        <ele>59.258422851562</ele>
        <time>2015-12-01T13:48:22Z</time>
      </trkpt>
      <trkpt lat="48.1117" lon="-4.2758">
        <ele>58.777709960938</ele>
        <time>2015-12-01T13:48:29Z</time>
      </trkpt>
      <trkpt lat="48.11168" lon="-4.27583">
        <ele>57.816528320312</ele>
        <time>2015-12-01T13:48:31Z</time>
      </trkpt>
      <trkpt lat="48.11163" lon="-4.27591">
        <ele>56.855102539062</ele>
        <time>2015-12-01T13:48:36Z</time>
      </trkpt>
      <trkpt lat="48.11161" lon="-4.27592">
        <ele>56.855102539062</ele>
        <time>2015-12-01T13:48:37Z</time>
      </trkpt>
      <trkpt lat="48.11159" lon="-4.27597">
        <ele>55.893798828125</ele>
        <time>2015-12-01T13:48:40Z</time>
      </trkpt>
      <trkpt lat="48.11154" lon="-4.27606">
        <ele>54.932373046875</ele>
        <time>2015-12-01T13:48:46Z</time>
      </trkpt>
      <trkpt lat="48.11153" lon="-4.27608">
        <ele>53.97119140625</ele>
        <time>2015-12-01T13:48:47Z</time>
      </trkpt>
      <trkpt lat="48.11151" lon="-4.2761">
        <ele>54.451782226562</ele>
        <time>2015-12-01T13:48:49Z</time>
      </trkpt>
      <trkpt lat="48.11146" lon="-4.27617">
        <ele>53.97119140625</ele>
        <time>2015-12-01T13:48:55Z</time>
      </trkpt>
      <trkpt lat="48.11142" lon="-4.27622">
        <ele>54.451782226562</ele>
        <time>2015-12-01T13:48:59Z</time>
      </trkpt>
      <trkpt lat="48.11141" lon="-4.27625">
        <ele>54.932373046875</ele>
        <time>2015-12-01T13:49:01Z</time>
      </trkpt>
      <trkpt lat="48.11135" lon="-4.27632">
        <ele>53.009765625</ele>
        <time>2015-12-01T13:49:08Z</time>
      </trkpt>
      <trkpt lat="48.1113" lon="-4.27636">
        <ele>52.529174804688</ele>
        <time>2015-12-01T13:49:12Z</time>
      </trkpt>
      <trkpt lat="48.11124" lon="-4.27643">
        <ele>54.451782226562</ele>
        <time>2015-12-01T13:49:19Z</time>
      </trkpt>
      <trkpt lat="48.11123" lon="-4.27646">
        <ele>54.451782226562</ele>
        <time>2015-12-01T13:49:21Z</time>
      </trkpt>
      <trkpt lat="48.11122" lon="-4.27649">
        <ele>55.4130859375</ele>
        <time>2015-12-01T13:49:23Z</time>
      </trkpt>
      <trkpt lat="48.11118" lon="-4.27658">
        <ele>55.893798828125</ele>
        <time>2015-12-01T13:49:28Z</time>
      </trkpt>
      <trkpt lat="48.11116" lon="-4.27663">
        <ele>55.893798828125</ele>
        <time>2015-12-01T13:49:31Z</time>
      </trkpt>
      <trkpt lat="48.11115" lon="-4.27666">
        <ele>55.893798828125</ele>
        <time>2015-12-01T13:49:33Z</time>
      </trkpt>
      <trkpt lat="48.11113" lon="-4.27675">
        <ele>55.4130859375</ele>
        <time>2015-12-01T13:49:39Z</time>
      </trkpt>
      <trkpt lat="48.11113" lon="-4.27678">
        <ele>55.893798828125</ele>
        <time>2015-12-01T13:49:45Z</time>
      </trkpt>
      <trkpt lat="48.11109" lon="-4.27688">
        <ele>55.4130859375</ele>
        <time>2015-12-01T13:49:51Z</time>
      </trkpt>
      <trkpt lat="48.11107" lon="-4.27695">
        <ele>53.490478515625</ele>
        <time>2015-12-01T13:49:56Z</time>
      </trkpt>
      <trkpt lat="48.11101" lon="-4.27704">
        <ele>51.087158203125</ele>
        <time>2015-12-01T13:50:04Z</time>
      </trkpt>
      <trkpt lat="48.11098" lon="-4.2771">
        <ele>51.56787109375</ele>
        <time>2015-12-01T13:50:09Z</time>
      </trkpt>
      <trkpt lat="48.11095" lon="-4.27716">
        <ele>50.1259765625</ele>
        <time>2015-12-01T13:50:13Z</time>
      </trkpt>
      <trkpt lat="48.11091" lon="-4.27726">
        <ele>49.16455078125</ele>
        <time>2015-12-01T13:50:20Z</time>
      </trkpt>
      <trkpt lat="48.11087" lon="-4.27742">
        <ele>48.203369140625</ele>
        <time>2015-12-01T13:50:29Z</time>
      </trkpt>
      <trkpt lat="48.11083" lon="-4.27756">
        <ele>47.722534179688</ele>
        <time>2015-12-01T13:50:37Z</time>
      </trkpt>
      <trkpt lat="48.11083" lon="-4.27766">
        <ele>46.280639648438</ele>
        <time>2015-12-01T13:50:42Z</time>
      </trkpt>
      <trkpt lat="48.11083" lon="-4.2777">
        <ele>45.799926757812</ele>
        <time>2015-12-01T13:50:45Z</time>
      </trkpt>
      <trkpt lat="48.11082" lon="-4.27781">
        <ele>45.319213867188</ele>
        <time>2015-12-01T13:50:52Z</time>
      </trkpt>
      <trkpt lat="48.1108" lon="-4.2779">
        <ele>45.799926757812</ele>
        <time>2015-12-01T13:50:58Z</time>
      </trkpt>
      <trkpt lat="48.11078" lon="-4.27798">
        <ele>45.799926757812</ele>
        <time>2015-12-01T13:51:02Z</time>
      </trkpt>
      <trkpt lat="48.11077" lon="-4.27804">
        <ele>44.838623046875</ele>
        <time>2015-12-01T13:51:07Z</time>
      </trkpt>
      <trkpt lat="48.11076" lon="-4.2781">
        <ele>43.877319335938</ele>
        <time>2015-12-01T13:51:10Z</time>
      </trkpt>
      <trkpt lat="48.11074" lon="-4.27819">
        <ele>43.396606445312</ele>
        <time>2015-12-01T13:51:16Z</time>
      </trkpt>
      <trkpt lat="48.11071" lon="-4.2783">
        <ele>43.396606445312</ele>
        <time>2015-12-01T13:51:23Z</time>
      </trkpt>
      <trkpt lat="48.1107" lon="-4.27842">
        <ele>43.396606445312</ele>
        <time>2015-12-01T13:51:30Z</time>
      </trkpt>
      <trkpt lat="48.11068" lon="-4.27861">
        <ele>43.877319335938</ele>
        <time>2015-12-01T13:51:40Z</time>
      </trkpt>
      <trkpt lat="48.11068" lon="-4.27876">
        <ele>43.877319335938</ele>
        <time>2015-12-01T13:51:48Z</time>
      </trkpt>
      <trkpt lat="48.11067" lon="-4.27891">
        <ele>43.396606445312</ele>
        <time>2015-12-01T13:51:57Z</time>
      </trkpt>
      <trkpt lat="48.11067" lon="-4.27893">
        <ele>43.396606445312</ele>
        <time>2015-12-01T13:51:58Z</time>
      </trkpt>
      <trkpt lat="48.11067" lon="-4.27906">
        <ele>41.954711914062</ele>
        <time>2015-12-01T13:52:06Z</time>
      </trkpt>
      <trkpt lat="48.11066" lon="-4.2792">
        <ele>41.473999023438</ele>
        <time>2015-12-01T13:52:14Z</time>
      </trkpt>
      <trkpt lat="48.11066" lon="-4.27927">
        <ele>40.993408203125</ele>
        <time>2015-12-01T13:52:19Z</time>
      </trkpt>
      <trkpt lat="48.11066" lon="-4.27939">
        <ele>39.070678710938</ele>
        <time>2015-12-01T13:52:27Z</time>
      </trkpt>
      <trkpt lat="48.11065" lon="-4.27952">
        <ele>38.590087890625</ele>
        <time>2015-12-01T13:52:34Z</time>
      </trkpt>
      <trkpt lat="48.11065" lon="-4.27967">
        <ele>38.590087890625</ele>
        <time>2015-12-01T13:52:42Z</time>
      </trkpt>
      <trkpt lat="48.11068" lon="-4.27977">
        <ele>37.628662109375</ele>
        <time>2015-12-01T13:52:49Z</time>
      </trkpt>
      <trkpt lat="48.1107" lon="-4.2798">
        <ele>37.628662109375</ele>
        <time>2015-12-01T13:52:52Z</time>
      </trkpt>
      <trkpt lat="48.1108" lon="-4.27983">
        <ele>36.186767578125</ele>
        <time>2015-12-01T13:53:01Z</time>
      </trkpt>
      <trkpt lat="48.11089" lon="-4.27985">
        <ele>35.7060546875</ele>
        <time>2015-12-01T13:53:09Z</time>
      </trkpt>
      <trkpt lat="48.11097" lon="-4.27988">
        <ele>36.186767578125</ele>
        <time>2015-12-01T13:53:16Z</time>
      </trkpt>
      <trkpt lat="48.11102" lon="-4.2799">
        <ele>36.186767578125</ele>
        <time>2015-12-01T13:53:21Z</time>
      </trkpt>
      <trkpt lat="48.11103" lon="-4.2799">
        <ele>35.7060546875</ele>
        <time>2015-12-01T13:53:30Z</time>
      </trkpt>
      <trkpt lat="48.11103" lon="-4.27992">
        <ele>33.783447265625</ele>
        <time>2015-12-01T13:53:46Z</time>
      </trkpt>
      <trkpt lat="48.11103" lon="-4.27994">
        <ele>33.302856445312</ele>
        <time>2015-12-01T13:53:56Z</time>
      </trkpt>
      <trkpt lat="48.11104" lon="-4.27991">
        <ele>30.418823242188</ele>
        <time>2015-12-01T13:54:09Z</time>
      </trkpt>
      <trkpt lat="48.11107" lon="-4.27994">
        <ele>28.496215820312</ele>
        <time>2015-12-01T13:54:28Z</time>
      </trkpt>
      <trkpt lat="48.11109" lon="-4.27995">
        <ele>28.015502929688</ele>
        <time>2015-12-01T13:54:30Z</time>
      </trkpt>
      <trkpt lat="48.11113" lon="-4.27997">
        <ele>29.938110351562</ele>
        <time>2015-12-01T13:54:34Z</time>
      </trkpt>
      <trkpt lat="48.11111" lon="-4.27995">
        <ele>33.302856445312</ele>
        <time>2015-12-01T13:54:51Z</time>
      </trkpt>
      <trkpt lat="48.1111" lon="-4.27997">
        <ele>32.341552734375</ele>
        <time>2015-12-01T13:54:53Z</time>
      </trkpt>
      <trkpt lat="48.11119" lon="-4.28004">
        <ele>33.783447265625</ele>
        <time>2015-12-01T13:55:00Z</time>
      </trkpt>
      <trkpt lat="48.11119" lon="-4.28002">
        <ele>33.783447265625</ele>
        <time>2015-12-01T13:55:04Z</time>
      </trkpt>
      <trkpt lat="48.11119" lon="-4.28003">
        <ele>35.7060546875</ele>
        <time>2015-12-01T13:55:05Z</time>
      </trkpt>
      <trkpt lat="48.11123" lon="-4.28">
        <ele>35.7060546875</ele>
        <time>2015-12-01T13:55:11Z</time>
      </trkpt>
      <trkpt lat="48.1111" lon="-4.2798">
        <ele>45.799926757812</ele>
        <time>2015-12-01T13:55:16Z</time>
      </trkpt>
      <trkpt lat="48.11103" lon="-4.27972">
        <ele>54.932373046875</ele>
        <time>2015-12-01T13:55:21Z</time>
      </trkpt>
      <trkpt lat="48.11113" lon="-4.27982">
        <ele>53.97119140625</ele>
        <time>2015-12-01T13:55:25Z</time>
      </trkpt>
      <trkpt lat="48.11141" lon="-4.28002">
        <ele>34.744873046875</ele>
        <time>2015-12-01T13:55:33Z</time>
      </trkpt>
      <trkpt lat="48.11143" lon="-4.28003">
        <ele>33.302856445312</ele>
        <time>2015-12-01T13:55:36Z</time>
      </trkpt>
      <trkpt lat="48.11156" lon="-4.28005">
        <ele>30.418823242188</ele>
        <time>2015-12-01T13:55:42Z</time>
      </trkpt>
      <trkpt lat="48.11158" lon="-4.28005">
        <ele>28.496215820312</ele>
        <time>2015-12-01T13:55:46Z</time>
      </trkpt>
      <trkpt lat="48.11161" lon="-4.28012">
        <ele>27.054321289062</ele>
        <time>2015-12-01T13:55:50Z</time>
      </trkpt>
      <trkpt lat="48.11169" lon="-4.28012">
        <ele>27.534912109375</ele>
        <time>2015-12-01T13:55:57Z</time>
      </trkpt>
      <trkpt lat="48.11176" lon="-4.28012">
        <ele>26.092895507812</ele>
        <time>2015-12-01T13:56:03Z</time>
      </trkpt>
      <trkpt lat="48.11177" lon="-4.28013">
        <ele>26.092895507812</ele>
        <time>2015-12-01T13:56:08Z</time>
      </trkpt>
      <trkpt lat="48.11177" lon="-4.28021">
        <ele>23.689575195312</ele>
        <time>2015-12-01T13:56:13Z</time>
      </trkpt>
      <trkpt lat="48.11175" lon="-4.28027">
        <ele>19.844360351562</ele>
        <time>2015-12-01T13:56:18Z</time>
      </trkpt>
      <trkpt lat="48.11174" lon="-4.28032">
        <ele>24.170288085938</ele>
        <time>2015-12-01T13:56:24Z</time>
      </trkpt>
      <trkpt lat="48.11174" lon="-4.28038">
        <ele>31.860717773438</ele>
        <time>2015-12-01T13:56:28Z</time>
      </trkpt>
      <trkpt lat="48.11167" lon="-4.28046">
        <ele>28.976928710938</ele>
        <time>2015-12-01T13:56:33Z</time>
      </trkpt>
      <trkpt lat="48.11169" lon="-4.28052">
        <ele>28.015502929688</ele>
        <time>2015-12-01T13:56:37Z</time>
      </trkpt>
      <trkpt lat="48.11178" lon="-4.28057">
        <ele>31.860717773438</ele>
        <time>2015-12-01T13:56:43Z</time>
      </trkpt>
      <trkpt lat="48.11177" lon="-4.28057">
        <ele>30.418823242188</ele>
        <time>2015-12-01T13:56:49Z</time>
      </trkpt>
      <trkpt lat="48.11178" lon="-4.28061">
        <ele>23.689575195312</ele>
        <time>2015-12-01T13:56:57Z</time>
      </trkpt>
      <trkpt lat="48.11176" lon="-4.28057">
        <ele>23.689575195312</ele>
        <time>2015-12-01T13:57:01Z</time>
      </trkpt>
      <trkpt lat="48.11177" lon="-4.28064">
        <ele>20.324951171875</ele>
        <time>2015-12-01T13:57:05Z</time>
      </trkpt>
      <trkpt lat="48.1118" lon="-4.28074">
        <ele>15.9990234375</ele>
        <time>2015-12-01T13:57:11Z</time>
      </trkpt>
      <trkpt lat="48.11183" lon="-4.28086">
        <ele>15.9990234375</ele>
        <time>2015-12-01T13:57:17Z</time>
      </trkpt>
      <trkpt lat="48.11182" lon="-4.28099">
        <ele>18.40234375</ele>
        <time>2015-12-01T13:57:24Z</time>
      </trkpt>
      <trkpt lat="48.11181" lon="-4.28112">
        <ele>19.36376953125</ele>
        <time>2015-12-01T13:57:32Z</time>
      </trkpt>
      <trkpt lat="48.1118" lon="-4.28126">
        <ele>19.36376953125</ele>
        <time>2015-12-01T13:57:40Z</time>
      </trkpt>
      <trkpt lat="48.11178" lon="-4.28138">
        <ele>18.883056640625</ele>
        <time>2015-12-01T13:57:47Z</time>
      </trkpt>
      <trkpt lat="48.11178" lon="-4.28139">
        <ele>18.883056640625</ele>
        <time>2015-12-01T13:57:48Z</time>
      </trkpt>
      <trkpt lat="48.11175" lon="-4.28146">
        <ele>17.921752929688</ele>
        <time>2015-12-01T13:57:53Z</time>
      </trkpt>
      <trkpt lat="48.11174" lon="-4.28149">
        <ele>17.921752929688</ele>
        <time>2015-12-01T13:57:55Z</time>
      </trkpt>
      <trkpt lat="48.11172" lon="-4.28158">
        <ele>17.441162109375</ele>
        <time>2015-12-01T13:58:01Z</time>
      </trkpt>
      <trkpt lat="48.11172" lon="-4.2816">
        <ele>16.96044921875</ele>
        <time>2015-12-01T13:58:02Z</time>
      </trkpt>
      <trkpt lat="48.11171" lon="-4.28165">
        <ele>16.96044921875</ele>
        <time>2015-12-01T13:58:05Z</time>
      </trkpt>
      <trkpt lat="48.11168" lon="-4.28178">
        <ele>16.479736328125</ele>
        <time>2015-12-01T13:58:14Z</time>
      </trkpt>
      <trkpt lat="48.11165" lon="-4.28189">
        <ele>15.9990234375</ele>
        <time>2015-12-01T13:58:21Z</time>
      </trkpt>
      <trkpt lat="48.11164" lon="-4.28201">
        <ele>14.557006835938</ele>
        <time>2015-12-01T13:58:29Z</time>
      </trkpt>
      <trkpt lat="48.11163" lon="-4.28211">
        <ele>14.557006835938</ele>
        <time>2015-12-01T13:58:36Z</time>
      </trkpt>
      <trkpt lat="48.11163" lon="-4.28212">
        <ele>14.076416015625</ele>
        <time>2015-12-01T13:58:37Z</time>
      </trkpt>
      <trkpt lat="48.11162" lon="-4.28222">
        <ele>14.557006835938</ele>
        <time>2015-12-01T13:58:43Z</time>
      </trkpt>
      <trkpt lat="48.1116" lon="-4.28231">
        <ele>14.557006835938</ele>
        <time>2015-12-01T13:58:49Z</time>
      </trkpt>
      <trkpt lat="48.1116" lon="-4.28244">
        <ele>14.076416015625</ele>
        <time>2015-12-01T13:58:57Z</time>
      </trkpt>
      <trkpt lat="48.11163" lon="-4.28256">
        <ele>14.557006835938</ele>
        <time>2015-12-01T13:59:05Z</time>
      </trkpt>
      <trkpt lat="48.11167" lon="-4.28265">
        <ele>14.076416015625</ele>
        <time>2015-12-01T13:59:11Z</time>
      </trkpt>
      <trkpt lat="48.11169" lon="-4.28273">
        <ele>13.595825195312</ele>
        <time>2015-12-01T13:59:17Z</time>
      </trkpt>
      <trkpt lat="48.11172" lon="-4.28278">
        <ele>12.15380859375</ele>
        <time>2015-12-01T13:59:26Z</time>
      </trkpt>
      <trkpt lat="48.11173" lon="-4.28277">
        <ele>10.711791992188</ele>
        <time>2015-12-01T13:59:35Z</time>
      </trkpt>
      <trkpt lat="48.11174" lon="-4.28282">
        <ele>8.7891845703125</ele>
        <time>2015-12-01T13:59:43Z</time>
      </trkpt>
      <trkpt lat="48.11176" lon="-4.28285">
        <ele>8.30859375</ele>
        <time>2015-12-01T13:59:47Z</time>
      </trkpt>
      <trkpt lat="48.11179" lon="-4.28288">
        <ele>7.34716796875</ele>
        <time>2015-12-01T13:59:53Z</time>
      </trkpt>
      <trkpt lat="48.1118" lon="-4.28291">
        <ele>7.34716796875</ele>
        <time>2015-12-01T13:59:57Z</time>
      </trkpt>
      <trkpt lat="48.11183" lon="-4.28296">
        <ele>6.866455078125</ele>
        <time>2015-12-01T14:00:00Z</time>
      </trkpt>
      <trkpt lat="48.11188" lon="-4.28298">
        <ele>6.866455078125</ele>
        <time>2015-12-01T14:00:06Z</time>
      </trkpt>
      <trkpt lat="48.11199" lon="-4.28298">
        <ele>6.866455078125</ele>
        <time>2015-12-01T14:00:15Z</time>
      </trkpt>
      <trkpt lat="48.11206" lon="-4.283">
        <ele>7.34716796875</ele>
        <time>2015-12-01T14:00:21Z</time>
      </trkpt>
      <trkpt lat="48.11214" lon="-4.28299">
        <ele>6.866455078125</ele>
        <time>2015-12-01T14:00:28Z</time>
      </trkpt>
      <trkpt lat="48.11225" lon="-4.28299">
        <ele>7.34716796875</ele>
        <time>2015-12-01T14:00:37Z</time>
      </trkpt>
      <trkpt lat="48.11235" lon="-4.28299">
        <ele>9.2698974609375</ele>
        <time>2015-12-01T14:00:45Z</time>
      </trkpt>
      <trkpt lat="48.11244" lon="-4.28299">
        <ele>9.7506103515625</ele>
        <time>2015-12-01T14:00:52Z</time>
      </trkpt>
      <trkpt lat="48.11253" lon="-4.28296">
        <ele>8.7891845703125</ele>
        <time>2015-12-01T14:01:00Z</time>
      </trkpt>
      <trkpt lat="48.11264" lon="-4.28292">
        <ele>7.827880859375</ele>
        <time>2015-12-01T14:01:09Z</time>
      </trkpt>
      <trkpt lat="48.11271" lon="-4.28292">
        <ele>7.827880859375</ele>
        <time>2015-12-01T14:01:15Z</time>
      </trkpt>
      <trkpt lat="48.11281" lon="-4.28289">
        <ele>7.34716796875</ele>
        <time>2015-12-01T14:01:23Z</time>
      </trkpt>
      <trkpt lat="48.11291" lon="-4.28286">
        <ele>5.9052734375</ele>
        <time>2015-12-01T14:01:32Z</time>
      </trkpt>
      <trkpt lat="48.11298" lon="-4.28284">
        <ele>6.3858642578125</ele>
        <time>2015-12-01T14:01:38Z</time>
      </trkpt>
      <trkpt lat="48.11308" lon="-4.2828">
        <ele>6.3858642578125</ele>
        <time>2015-12-01T14:01:47Z</time>
      </trkpt>
      <trkpt lat="48.11317" lon="-4.28276">
        <ele>6.866455078125</ele>
        <time>2015-12-01T14:01:55Z</time>
      </trkpt>
      <trkpt lat="48.11326" lon="-4.28273">
        <ele>6.3858642578125</ele>
        <time>2015-12-01T14:02:03Z</time>
      </trkpt>
      <trkpt lat="48.11335" lon="-4.28269">
        <ele>6.866455078125</ele>
        <time>2015-12-01T14:02:11Z</time>
      </trkpt>
      <trkpt lat="48.11345" lon="-4.28266">
        <ele>7.34716796875</ele>
        <time>2015-12-01T14:02:19Z</time>
      </trkpt>
      <trkpt lat="48.11352" lon="-4.28262">
        <ele>6.866455078125</ele>
        <time>2015-12-01T14:02:25Z</time>
      </trkpt>
      <trkpt lat="48.11362" lon="-4.28257">
        <ele>6.3858642578125</ele>
        <time>2015-12-01T14:02:34Z</time>
      </trkpt>
      <trkpt lat="48.1137" lon="-4.28254">
        <ele>6.3858642578125</ele>
        <time>2015-12-01T14:02:41Z</time>
      </trkpt>
      <trkpt lat="48.11376" lon="-4.28251">
        <ele>6.866455078125</ele>
        <time>2015-12-01T14:02:47Z</time>
      </trkpt>
      <trkpt lat="48.11384" lon="-4.28248">
        <ele>7.34716796875</ele>
        <time>2015-12-01T14:02:54Z</time>
      </trkpt>
      <trkpt lat="48.1139" lon="-4.28245">
        <ele>6.866455078125</ele>
        <time>2015-12-01T14:02:59Z</time>
      </trkpt>
      <trkpt lat="48.11398" lon="-4.28242">
        <ele>6.3858642578125</ele>
        <time>2015-12-01T14:03:06Z</time>
      </trkpt>
      <trkpt lat="48.11408" lon="-4.28238">
        <ele>6.3858642578125</ele>
        <time>2015-12-01T14:03:14Z</time>
      </trkpt>
      <trkpt lat="48.11416" lon="-4.28234">
        <ele>7.827880859375</ele>
        <time>2015-12-01T14:03:21Z</time>
      </trkpt>
      <trkpt lat="48.11426" lon="-4.28231">
        <ele>9.2698974609375</ele>
        <time>2015-12-01T14:03:29Z</time>
      </trkpt>
      <trkpt lat="48.11435" lon="-4.28228">
        <ele>9.7506103515625</ele>
        <time>2015-12-01T14:03:36Z</time>
      </trkpt>
      <trkpt lat="48.11446" lon="-4.28225">
        <ele>9.7506103515625</ele>
        <time>2015-12-01T14:03:45Z</time>
      </trkpt>
      <trkpt lat="48.11455" lon="-4.28222">
        <ele>10.231201171875</ele>
        <time>2015-12-01T14:03:53Z</time>
      </trkpt>
      <trkpt lat="48.11465" lon="-4.28218">
        <ele>9.7506103515625</ele>
        <time>2015-12-01T14:04:02Z</time>
      </trkpt>
      <trkpt lat="48.11474" lon="-4.28214">
        <ele>9.7506103515625</ele>
        <time>2015-12-01T14:04:10Z</time>
      </trkpt>
      <trkpt lat="48.1148" lon="-4.28211">
        <ele>10.231201171875</ele>
        <time>2015-12-01T14:04:15Z</time>
      </trkpt>
      <trkpt lat="48.11489" lon="-4.28208">
        <ele>10.231201171875</ele>
        <time>2015-12-01T14:04:22Z</time>
      </trkpt>
      <trkpt lat="48.11498" lon="-4.28205">
        <ele>9.2698974609375</ele>
        <time>2015-12-01T14:04:29Z</time>
      </trkpt>
      <trkpt lat="48.11503" lon="-4.28202">
        <ele>8.7891845703125</ele>
        <time>2015-12-01T14:04:34Z</time>
      </trkpt>
      <trkpt lat="48.11511" lon="-4.28199">
        <ele>9.2698974609375</ele>
        <time>2015-12-01T14:04:41Z</time>
      </trkpt>
      <trkpt lat="48.11521" lon="-4.28196">
        <ele>9.7506103515625</ele>
        <time>2015-12-01T14:04:49Z</time>
      </trkpt>
      <trkpt lat="48.11529" lon="-4.28193">
        <ele>9.7506103515625</ele>
        <time>2015-12-01T14:04:56Z</time>
      </trkpt>
      <trkpt lat="48.11536" lon="-4.28191">
        <ele>10.711791992188</ele>
        <time>2015-12-01T14:05:02Z</time>
      </trkpt>
      <trkpt lat="48.11545" lon="-4.28187">
        <ele>11.192504882812</ele>
        <time>2015-12-01T14:05:10Z</time>
      </trkpt>
      <trkpt lat="48.11557" lon="-4.28183">
        <ele>9.7506103515625</ele>
        <time>2015-12-01T14:05:19Z</time>
      </trkpt>
      <trkpt lat="48.11567" lon="-4.2818">
        <ele>8.7891845703125</ele>
        <time>2015-12-01T14:05:27Z</time>
      </trkpt>
      <trkpt lat="48.11575" lon="-4.28179">
        <ele>8.30859375</ele>
        <time>2015-12-01T14:05:34Z</time>
      </trkpt>
      <trkpt lat="48.11583" lon="-4.28176">
        <ele>8.30859375</ele>
        <time>2015-12-01T14:05:40Z</time>
      </trkpt>
      <trkpt lat="48.11593" lon="-4.28173">
        <ele>8.30859375</ele>
        <time>2015-12-01T14:05:48Z</time>
      </trkpt>
      <trkpt lat="48.11602" lon="-4.28168">
        <ele>7.34716796875</ele>
        <time>2015-12-01T14:05:56Z</time>
      </trkpt>
      <trkpt lat="48.11612" lon="-4.28165">
        <ele>6.866455078125</ele>
        <time>2015-12-01T14:06:04Z</time>
      </trkpt>
      <trkpt lat="48.11622" lon="-4.28162">
        <ele>7.34716796875</ele>
        <time>2015-12-01T14:06:12Z</time>
      </trkpt>
      <trkpt lat="48.1163" lon="-4.28161">
        <ele>7.827880859375</ele>
        <time>2015-12-01T14:06:18Z</time>
      </trkpt>
      <trkpt lat="48.11637" lon="-4.28159">
        <ele>7.827880859375</ele>
        <time>2015-12-01T14:06:24Z</time>
      </trkpt>
      <trkpt lat="48.11647" lon="-4.28157">
        <ele>7.34716796875</ele>
        <time>2015-12-01T14:06:32Z</time>
      </trkpt>
      <trkpt lat="48.11655" lon="-4.28155">
        <ele>7.827880859375</ele>
        <time>2015-12-01T14:06:38Z</time>
      </trkpt>
      <trkpt lat="48.11663" lon="-4.28151">
        <ele>7.827880859375</ele>
        <time>2015-12-01T14:06:45Z</time>
      </trkpt>
      <trkpt lat="48.11672" lon="-4.2815">
        <ele>8.30859375</ele>
        <time>2015-12-01T14:06:52Z</time>
      </trkpt>
      <trkpt lat="48.1168" lon="-4.28147">
        <ele>8.30859375</ele>
        <time>2015-12-01T14:06:59Z</time>
      </trkpt>
      <trkpt lat="48.11688" lon="-4.28146">
        <ele>7.827880859375</ele>
        <time>2015-12-01T14:07:06Z</time>
      </trkpt>
      <trkpt lat="48.11696" lon="-4.28145">
        <ele>7.34716796875</ele>
        <time>2015-12-01T14:07:12Z</time>
      </trkpt>
      <trkpt lat="48.11703" lon="-4.28144">
        <ele>7.827880859375</ele>
        <time>2015-12-01T14:07:18Z</time>
      </trkpt>
      <trkpt lat="48.11707" lon="-4.28143">
        <ele>7.827880859375</ele>
        <time>2015-12-01T14:07:22Z</time>
      </trkpt>
      <trkpt lat="48.11721" lon="-4.28137">
        <ele>8.7891845703125</ele>
        <time>2015-12-01T14:07:33Z</time>
      </trkpt>
      <trkpt lat="48.11731" lon="-4.28135">
        <ele>8.30859375</ele>
        <time>2015-12-01T14:07:41Z</time>
      </trkpt>
      <trkpt lat="48.11741" lon="-4.28132">
        <ele>7.827880859375</ele>
        <time>2015-12-01T14:07:49Z</time>
      </trkpt>
      <trkpt lat="48.11751" lon="-4.28127">
        <ele>7.827880859375</ele>
        <time>2015-12-01T14:07:57Z</time>
      </trkpt>
      <trkpt lat="48.11758" lon="-4.28124">
        <ele>7.34716796875</ele>
        <time>2015-12-01T14:08:03Z</time>
      </trkpt>
      <trkpt lat="48.11766" lon="-4.28122">
        <ele>7.34716796875</ele>
        <time>2015-12-01T14:08:09Z</time>
      </trkpt>
      <trkpt lat="48.11774" lon="-4.2812">
        <ele>7.34716796875</ele>
        <time>2015-12-01T14:08:16Z</time>
      </trkpt>
      <trkpt lat="48.11781" lon="-4.28118">
        <ele>7.34716796875</ele>
        <time>2015-12-01T14:08:22Z</time>
      </trkpt>
      <trkpt lat="48.11787" lon="-4.28118">
        <ele>7.827880859375</ele>
        <time>2015-12-01T14:08:27Z</time>
      </trkpt>
      <trkpt lat="48.11793" lon="-4.28116">
        <ele>7.34716796875</ele>
        <time>2015-12-01T14:08:33Z</time>
      </trkpt>
      <trkpt lat="48.11797" lon="-4.28114">
        <ele>6.866455078125</ele>
        <time>2015-12-01T14:08:36Z</time>
      </trkpt>
      <trkpt lat="48.11801" lon="-4.28111">
        <ele>6.866455078125</ele>
        <time>2015-12-01T14:08:41Z</time>
      </trkpt>
      <trkpt lat="48.11805" lon="-4.28108">
        <ele>6.866455078125</ele>
        <time>2015-12-01T14:08:45Z</time>
      </trkpt>
      <trkpt lat="48.11812" lon="-4.28105">
        <ele>6.866455078125</ele>
        <time>2015-12-01T14:08:51Z</time>
      </trkpt>
      <trkpt lat="48.11821" lon="-4.28099">
        <ele>6.3858642578125</ele>
        <time>2015-12-01T14:08:59Z</time>
      </trkpt>
      <trkpt lat="48.11827" lon="-4.2809">
        <ele>5.424560546875</ele>
        <time>2015-12-01T14:09:06Z</time>
      </trkpt>
      <trkpt lat="48.11828" lon="-4.28088">
        <ele>5.424560546875</ele>
        <time>2015-12-01T14:09:07Z</time>
      </trkpt>
      <trkpt lat="48.11829" lon="-4.28076">
        <ele>4.94384765625</ele>
        <time>2015-12-01T14:09:14Z</time>
      </trkpt>
      <trkpt lat="48.1183" lon="-4.28069">
        <ele>4.94384765625</ele>
        <time>2015-12-01T14:09:18Z</time>
      </trkpt>
      <trkpt lat="48.11832" lon="-4.28063">
        <ele>5.424560546875</ele>
        <time>2015-12-01T14:09:23Z</time>
      </trkpt>
      <trkpt lat="48.11832" lon="-4.28058">
        <ele>6.866455078125</ele>
        <time>2015-12-01T14:09:30Z</time>
      </trkpt>
      <trkpt lat="48.11832" lon="-4.28055">
        <ele>7.34716796875</ele>
        <time>2015-12-01T14:09:35Z</time>
      </trkpt>
      <trkpt lat="48.11833" lon="-4.28053">
        <ele>8.30859375</ele>
        <time>2015-12-01T14:09:42Z</time>
      </trkpt>
      <trkpt lat="48.11834" lon="-4.28049">
        <ele>8.7891845703125</ele>
        <time>2015-12-01T14:09:49Z</time>
      </trkpt>
      <trkpt lat="48.11835" lon="-4.28044">
        <ele>9.7506103515625</ele>
        <time>2015-12-01T14:09:55Z</time>
      </trkpt>
      <trkpt lat="48.11834" lon="-4.28041">
        <ele>10.711791992188</ele>
        <time>2015-12-01T14:10:01Z</time>
      </trkpt>
      <trkpt lat="48.11836" lon="-4.2804">
        <ele>11.192504882812</ele>
        <time>2015-12-01T14:10:06Z</time>
      </trkpt>
      <trkpt lat="48.1184" lon="-4.28038">
        <ele>12.634399414062</ele>
        <time>2015-12-01T14:10:11Z</time>
      </trkpt>
      <trkpt lat="48.11845" lon="-4.28037">
        <ele>13.595825195312</ele>
        <time>2015-12-01T14:10:16Z</time>
      </trkpt>
      <trkpt lat="48.1185" lon="-4.28034">
        <ele>14.076416015625</ele>
        <time>2015-12-01T14:10:22Z</time>
      </trkpt>
      <trkpt lat="48.11855" lon="-4.28034">
        <ele>14.076416015625</ele>
        <time>2015-12-01T14:10:26Z</time>
      </trkpt>
      <trkpt lat="48.11864" lon="-4.28033">
        <ele>15.518432617188</ele>
        <time>2015-12-01T14:10:34Z</time>
      </trkpt>
      <trkpt lat="48.11869" lon="-4.28031">
        <ele>15.9990234375</ele>
        <time>2015-12-01T14:10:38Z</time>
      </trkpt>
      <trkpt lat="48.11876" lon="-4.28026">
        <ele>17.441162109375</ele>
        <time>2015-12-01T14:10:45Z</time>
      </trkpt>
      <trkpt lat="48.1188" lon="-4.28026">
        <ele>17.921752929688</ele>
        <time>2015-12-01T14:10:49Z</time>
      </trkpt>
      <trkpt lat="48.11884" lon="-4.28027">
        <ele>17.921752929688</ele>
        <time>2015-12-01T14:10:53Z</time>
      </trkpt>
      <trkpt lat="48.11893" lon="-4.28029">
        <ele>18.883056640625</ele>
        <time>2015-12-01T14:11:01Z</time>
      </trkpt>
      <trkpt lat="48.119" lon="-4.28031">
        <ele>18.883056640625</ele>
        <time>2015-12-01T14:11:07Z</time>
      </trkpt>
      <trkpt lat="48.11906" lon="-4.28033">
        <ele>19.844360351562</ele>
        <time>2015-12-01T14:11:13Z</time>
      </trkpt>
      <trkpt lat="48.11912" lon="-4.28035">
        <ele>20.324951171875</ele>
        <time>2015-12-01T14:11:19Z</time>
      </trkpt>
      <trkpt lat="48.11918" lon="-4.2804">
        <ele>21.286376953125</ele>
        <time>2015-12-01T14:11:26Z</time>
      </trkpt>
      <trkpt lat="48.11922" lon="-4.28049">
        <ele>21.286376953125</ele>
        <time>2015-12-01T14:11:32Z</time>
      </trkpt>
      <trkpt lat="48.11925" lon="-4.28065">
        <ele>23.208984375</ele>
        <time>2015-12-01T14:11:41Z</time>
      </trkpt>
      <trkpt lat="48.11928" lon="-4.28075">
        <ele>23.689575195312</ele>
        <time>2015-12-01T14:11:47Z</time>
      </trkpt>
      <trkpt lat="48.11935" lon="-4.28082">
        <ele>23.689575195312</ele>
        <time>2015-12-01T14:11:55Z</time>
      </trkpt>
      <trkpt lat="48.11941" lon="-4.2808">
        <ele>23.689575195312</ele>
        <time>2015-12-01T14:12:01Z</time>
      </trkpt>
      <trkpt lat="48.11946" lon="-4.28078">
        <ele>24.651000976562</ele>
        <time>2015-12-01T14:12:07Z</time>
      </trkpt>
      <trkpt lat="48.11953" lon="-4.28075">
        <ele>26.092895507812</ele>
        <time>2015-12-01T14:12:14Z</time>
      </trkpt>
      <trkpt lat="48.11959" lon="-4.28076">
        <ele>27.534912109375</ele>
        <time>2015-12-01T14:12:21Z</time>
      </trkpt>
      <trkpt lat="48.11962" lon="-4.28082">
        <ele>28.015502929688</ele>
        <time>2015-12-01T14:12:26Z</time>
      </trkpt>
      <trkpt lat="48.11963" lon="-4.28083">
        <ele>27.534912109375</ele>
        <time>2015-12-01T14:12:27Z</time>
      </trkpt>
      <trkpt lat="48.11969" lon="-4.28098">
        <ele>27.534912109375</ele>
        <time>2015-12-01T14:12:36Z</time>
      </trkpt>
      <trkpt lat="48.11973" lon="-4.28116">
        <ele>26.573608398438</ele>
        <time>2015-12-01T14:12:46Z</time>
      </trkpt>
      <trkpt lat="48.11973" lon="-4.2812">
        <ele>26.092895507812</ele>
        <time>2015-12-01T14:12:48Z</time>
      </trkpt>
      <trkpt lat="48.1197" lon="-4.28136">
        <ele>24.651000976562</ele>
        <time>2015-12-01T14:12:58Z</time>
      </trkpt>
      <trkpt lat="48.11972" lon="-4.28148">
        <ele>24.170288085938</ele>
        <time>2015-12-01T14:13:05Z</time>
      </trkpt>
      <trkpt lat="48.11976" lon="-4.28154">
        <ele>24.651000976562</ele>
        <time>2015-12-01T14:13:10Z</time>
      </trkpt>
      <trkpt lat="48.11983" lon="-4.28165">
        <ele>24.170288085938</ele>
        <time>2015-12-01T14:13:18Z</time>
      </trkpt>
      <trkpt lat="48.11989" lon="-4.28177">
        <ele>23.689575195312</ele>
        <time>2015-12-01T14:13:26Z</time>
      </trkpt>
      <trkpt lat="48.11994" lon="-4.28189">
        <ele>23.689575195312</ele>
        <time>2015-12-01T14:13:34Z</time>
      </trkpt>
      <trkpt lat="48.11995" lon="-4.28191">
        <ele>23.689575195312</ele>
        <time>2015-12-01T14:13:35Z</time>
      </trkpt>
      <trkpt lat="48.11996" lon="-4.282">
        <ele>23.689575195312</ele>
        <time>2015-12-01T14:13:40Z</time>
      </trkpt>
      <trkpt lat="48.12001" lon="-4.28218">
        <ele>25.131713867188</ele>
        <time>2015-12-01T14:13:50Z</time>
      </trkpt>
      <trkpt lat="48.12005" lon="-4.28229">
        <ele>25.6123046875</ele>
        <time>2015-12-01T14:13:57Z</time>
      </trkpt>
      <trkpt lat="48.12005" lon="-4.2824">
        <ele>25.131713867188</ele>
        <time>2015-12-01T14:14:03Z</time>
      </trkpt>
      <trkpt lat="48.12005" lon="-4.28247">
        <ele>25.6123046875</ele>
        <time>2015-12-01T14:14:06Z</time>
      </trkpt>
      <trkpt lat="48.12012" lon="-4.28256">
        <ele>25.131713867188</ele>
        <time>2015-12-01T14:14:14Z</time>
      </trkpt>
      <trkpt lat="48.12013" lon="-4.28257">
        <ele>25.131713867188</ele>
        <time>2015-12-01T14:14:15Z</time>
      </trkpt>
      <trkpt lat="48.12022" lon="-4.28258">
        <ele>27.054321289062</ele>
        <time>2015-12-01T14:14:24Z</time>
      </trkpt>
      <trkpt lat="48.12029" lon="-4.28258">
        <ele>28.015502929688</ele>
        <time>2015-12-01T14:14:31Z</time>
      </trkpt>
      <trkpt lat="48.12035" lon="-4.28255">
        <ele>28.976928710938</ele>
        <time>2015-12-01T14:14:39Z</time>
      </trkpt>
      <trkpt lat="48.1204" lon="-4.28254">
        <ele>31.380126953125</ele>
        <time>2015-12-01T14:14:45Z</time>
      </trkpt>
      <trkpt lat="48.12044" lon="-4.28256">
        <ele>32.341552734375</ele>
        <time>2015-12-01T14:14:50Z</time>
      </trkpt>
      <trkpt lat="48.12049" lon="-4.2826">
        <ele>33.302856445312</ele>
        <time>2015-12-01T14:14:56Z</time>
      </trkpt>
      <trkpt lat="48.12052" lon="-4.28263">
        <ele>33.783447265625</ele>
        <time>2015-12-01T14:14:59Z</time>
      </trkpt>
      <trkpt lat="48.12059" lon="-4.28272">
        <ele>34.744873046875</ele>
        <time>2015-12-01T14:15:07Z</time>
      </trkpt>
      <trkpt lat="48.12066" lon="-4.28274">
        <ele>35.225463867188</ele>
        <time>2015-12-01T14:15:13Z</time>
      </trkpt>
      <trkpt lat="48.1207" lon="-4.28276">
        <ele>35.7060546875</ele>
        <time>2015-12-01T14:15:17Z</time>
      </trkpt>
      <trkpt lat="48.12075" lon="-4.2828">
        <ele>34.744873046875</ele>
        <time>2015-12-01T14:15:25Z</time>
      </trkpt>
      <trkpt lat="48.12081" lon="-4.28287">
        <ele>32.822265625</ele>
        <time>2015-12-01T14:15:33Z</time>
      </trkpt>
      <trkpt lat="48.12092" lon="-4.28284">
        <ele>32.341552734375</ele>
        <time>2015-12-01T14:15:41Z</time>
      </trkpt>
      <trkpt lat="48.12093" lon="-4.28284">
        <ele>32.341552734375</ele>
        <time>2015-12-01T14:15:42Z</time>
      </trkpt>
      <trkpt lat="48.12102" lon="-4.28283">
        <ele>31.860717773438</ele>
        <time>2015-12-01T14:15:49Z</time>
      </trkpt>
      <trkpt lat="48.12112" lon="-4.28283">
        <ele>32.341552734375</ele>
        <time>2015-12-01T14:15:57Z</time>
      </trkpt>
      <trkpt lat="48.1212" lon="-4.28283">
        <ele>30.899536132812</ele>
        <time>2015-12-01T14:16:04Z</time>
      </trkpt>
      <trkpt lat="48.12121" lon="-4.28283">
        <ele>30.899536132812</ele>
        <time>2015-12-01T14:16:05Z</time>
      </trkpt>
      <trkpt lat="48.12132" lon="-4.28284">
        <ele>31.860717773438</ele>
        <time>2015-12-01T14:16:14Z</time>
      </trkpt>
      <trkpt lat="48.12141" lon="-4.28286">
        <ele>31.860717773438</ele>
        <time>2015-12-01T14:16:21Z</time>
      </trkpt>
      <trkpt lat="48.1215" lon="-4.28287">
        <ele>32.822265625</ele>
        <time>2015-12-01T14:16:28Z</time>
      </trkpt>
      <trkpt lat="48.12158" lon="-4.28287">
        <ele>33.783447265625</ele>
        <time>2015-12-01T14:16:34Z</time>
      </trkpt>
      <trkpt lat="48.12165" lon="-4.28288">
        <ele>34.26416015625</ele>
        <time>2015-12-01T14:16:40Z</time>
      </trkpt>
      <trkpt lat="48.12171" lon="-4.28289">
        <ele>34.26416015625</ele>
        <time>2015-12-01T14:16:45Z</time>
      </trkpt>
      <trkpt lat="48.12179" lon="-4.2829">
        <ele>34.26416015625</ele>
        <time>2015-12-01T14:16:52Z</time>
      </trkpt>
      <trkpt lat="48.12187" lon="-4.28288">
        <ele>34.26416015625</ele>
        <time>2015-12-01T14:16:59Z</time>
      </trkpt>
      <trkpt lat="48.12196" lon="-4.28288">
        <ele>33.302856445312</ele>
        <time>2015-12-01T14:17:06Z</time>
      </trkpt>
      <trkpt lat="48.12197" lon="-4.28287">
        <ele>33.302856445312</ele>
        <time>2015-12-01T14:17:07Z</time>
      </trkpt>
      <trkpt lat="48.12207" lon="-4.28285">
        <ele>32.822265625</ele>
        <time>2015-12-01T14:17:15Z</time>
      </trkpt>
      <trkpt lat="48.1221" lon="-4.28283">
        <ele>32.822265625</ele>
        <time>2015-12-01T14:17:18Z</time>
      </trkpt>
      <trkpt lat="48.1221" lon="-4.28282">
        <ele>32.822265625</ele>
        <time>2015-12-01T14:17:26Z</time>
      </trkpt>
      <trkpt lat="48.12212" lon="-4.28282">
        <ele>33.783447265625</ele>
        <time>2015-12-01T14:17:37Z</time>
      </trkpt>
      <trkpt lat="48.12214" lon="-4.28281">
        <ele>34.26416015625</ele>
        <time>2015-12-01T14:17:39Z</time>
      </trkpt>
      <trkpt lat="48.12224" lon="-4.28275">
        <ele>35.7060546875</ele>
        <time>2015-12-01T14:17:48Z</time>
      </trkpt>
      <trkpt lat="48.12231" lon="-4.2827">
        <ele>36.66748046875</ele>
        <time>2015-12-01T14:17:55Z</time>
      </trkpt>
      <trkpt lat="48.12237" lon="-4.28267">
        <ele>37.628662109375</ele>
        <time>2015-12-01T14:18:01Z</time>
      </trkpt>
      <trkpt lat="48.12245" lon="-4.28263">
        <ele>39.070678710938</ele>
        <time>2015-12-01T14:18:09Z</time>
      </trkpt>
      <trkpt lat="48.12251" lon="-4.2826">
        <ele>40.032104492188</ele>
        <time>2015-12-01T14:18:15Z</time>
      </trkpt>
      <trkpt lat="48.12259" lon="-4.28256">
        <ele>41.473999023438</ele>
        <time>2015-12-01T14:18:23Z</time>
      </trkpt>
      <trkpt lat="48.1226" lon="-4.28256">
        <ele>41.954711914062</ele>
        <time>2015-12-01T14:18:24Z</time>
      </trkpt>
      <trkpt lat="48.12267" lon="-4.28256">
        <ele>43.396606445312</ele>
        <time>2015-12-01T14:18:32Z</time>
      </trkpt>
      <trkpt lat="48.12273" lon="-4.2826">
        <ele>44.838623046875</ele>
        <time>2015-12-01T14:18:38Z</time>
      </trkpt>
      <trkpt lat="48.12278" lon="-4.28259">
        <ele>45.799926757812</ele>
        <time>2015-12-01T14:18:43Z</time>
      </trkpt>
      <trkpt lat="48.12281" lon="-4.2826">
        <ele>46.280639648438</ele>
        <time>2015-12-01T14:18:47Z</time>
      </trkpt>
      <trkpt lat="48.12287" lon="-4.28269">
        <ele>44.838623046875</ele>
        <time>2015-12-01T14:18:55Z</time>
      </trkpt>
      <trkpt lat="48.12288" lon="-4.28269">
        <ele>44.358032226562</ele>
        <time>2015-12-01T14:18:56Z</time>
      </trkpt>
      <trkpt lat="48.12292" lon="-4.28273">
        <ele>43.877319335938</ele>
        <time>2015-12-01T14:19:00Z</time>
      </trkpt>
      <trkpt lat="48.12299" lon="-4.28284">
        <ele>41.473999023438</ele>
        <time>2015-12-01T14:19:10Z</time>
      </trkpt>
      <trkpt lat="48.12304" lon="-4.28289">
        <ele>39.070678710938</ele>
        <time>2015-12-01T14:19:15Z</time>
      </trkpt>
      <trkpt lat="48.12311" lon="-4.28299">
        <ele>36.186767578125</ele>
        <time>2015-12-01T14:19:24Z</time>
      </trkpt>
      <trkpt lat="48.12316" lon="-4.28304">
        <ele>34.26416015625</ele>
        <time>2015-12-01T14:19:30Z</time>
      </trkpt>
      <trkpt lat="48.12327" lon="-4.28315">
        <ele>33.783447265625</ele>
        <time>2015-12-01T14:19:41Z</time>
      </trkpt>
      <trkpt lat="48.12339" lon="-4.28321">
        <ele>33.783447265625</ele>
        <time>2015-12-01T14:19:51Z</time>
      </trkpt>
      <trkpt lat="48.12347" lon="-4.28324">
        <ele>34.26416015625</ele>
        <time>2015-12-01T14:19:57Z</time>
      </trkpt>
      <trkpt lat="48.12357" lon="-4.28329">
        <ele>34.26416015625</ele>
        <time>2015-12-01T14:20:05Z</time>
      </trkpt>
      <trkpt lat="48.12362" lon="-4.28329">
        <ele>33.783447265625</ele>
        <time>2015-12-01T14:20:09Z</time>
      </trkpt>
      <trkpt lat="48.12373" lon="-4.2833">
        <ele>35.225463867188</ele>
        <time>2015-12-01T14:20:18Z</time>
      </trkpt>
      <trkpt lat="48.12376" lon="-4.28332">
        <ele>34.744873046875</ele>
        <time>2015-12-01T14:20:21Z</time>
      </trkpt>
      <trkpt lat="48.12381" lon="-4.28334">
        <ele>34.744873046875</ele>
        <time>2015-12-01T14:20:25Z</time>
      </trkpt>
      <trkpt lat="48.12389" lon="-4.2834">
        <ele>33.302856445312</ele>
        <time>2015-12-01T14:20:33Z</time>
      </trkpt>
      <trkpt lat="48.12393" lon="-4.28346">
        <ele>32.822265625</ele>
        <time>2015-12-01T14:20:38Z</time>
      </trkpt>
      <trkpt lat="48.12402" lon="-4.28353">
        <ele>30.899536132812</ele>
        <time>2015-12-01T14:20:46Z</time>
      </trkpt>
      <trkpt lat="48.12409" lon="-4.2836">
        <ele>29.938110351562</ele>
        <time>2015-12-01T14:20:53Z</time>
      </trkpt>
      <trkpt lat="48.12416" lon="-4.28367">
        <ele>28.976928710938</ele>
        <time>2015-12-01T14:21:00Z</time>
      </trkpt>
      <trkpt lat="48.12423" lon="-4.28371">
        <ele>29.45751953125</ele>
        <time>2015-12-01T14:21:06Z</time>
      </trkpt>
      <trkpt lat="48.12431" lon="-4.28368">
        <ele>29.45751953125</ele>
        <time>2015-12-01T14:21:12Z</time>
      </trkpt>
      <trkpt lat="48.1244" lon="-4.28368">
        <ele>30.418823242188</ele>
        <time>2015-12-01T14:21:19Z</time>
      </trkpt>
      <trkpt lat="48.12449" lon="-4.28377">
        <ele>29.938110351562</ele>
        <time>2015-12-01T14:21:27Z</time>
      </trkpt>
      <trkpt lat="48.12461" lon="-4.28384">
        <ele>29.938110351562</ele>
        <time>2015-12-01T14:21:36Z</time>
      </trkpt>
      <trkpt lat="48.12471" lon="-4.2839">
        <ele>29.45751953125</ele>
        <time>2015-12-01T14:21:44Z</time>
      </trkpt>
      <trkpt lat="48.12482" lon="-4.28397">
        <ele>28.976928710938</ele>
        <time>2015-12-01T14:21:53Z</time>
      </trkpt>
      <trkpt lat="48.12492" lon="-4.28402">
        <ele>30.418823242188</ele>
        <time>2015-12-01T14:22:01Z</time>
      </trkpt>
      <trkpt lat="48.12501" lon="-4.28405">
        <ele>31.380126953125</ele>
        <time>2015-12-01T14:22:08Z</time>
      </trkpt>
      <trkpt lat="48.12509" lon="-4.28409">
        <ele>32.341552734375</ele>
        <time>2015-12-01T14:22:15Z</time>
      </trkpt>
      <trkpt lat="48.12512" lon="-4.28409">
        <ele>32.341552734375</ele>
        <time>2015-12-01T14:22:17Z</time>
      </trkpt>
      <trkpt lat="48.12521" lon="-4.28411">
        <ele>32.341552734375</ele>
        <time>2015-12-01T14:22:24Z</time>
      </trkpt>
      <trkpt lat="48.12531" lon="-4.28413">
        <ele>32.341552734375</ele>
        <time>2015-12-01T14:22:32Z</time>
      </trkpt>
      <trkpt lat="48.12539" lon="-4.28418">
        <ele>33.302856445312</ele>
        <time>2015-12-01T14:22:39Z</time>
      </trkpt>
      <trkpt lat="48.12544" lon="-4.28418">
        <ele>33.783447265625</ele>
        <time>2015-12-01T14:22:43Z</time>
      </trkpt>
      <trkpt lat="48.12546" lon="-4.28417">
        <ele>33.302856445312</ele>
        <time>2015-12-01T14:22:45Z</time>
      </trkpt>
      <trkpt lat="48.12555" lon="-4.28417">
        <ele>32.822265625</ele>
        <time>2015-12-01T14:22:53Z</time>
      </trkpt>
      <trkpt lat="48.12562" lon="-4.28416">
        <ele>31.860717773438</ele>
        <time>2015-12-01T14:22:59Z</time>
      </trkpt>
      <trkpt lat="48.12568" lon="-4.28424">
        <ele>29.938110351562</ele>
        <time>2015-12-01T14:23:06Z</time>
      </trkpt>
      <trkpt lat="48.12577" lon="-4.28432">
        <ele>28.976928710938</ele>
        <time>2015-12-01T14:23:15Z</time>
      </trkpt>
      <trkpt lat="48.12584" lon="-4.28438">
        <ele>28.976928710938</ele>
        <time>2015-12-01T14:23:22Z</time>
      </trkpt>
      <trkpt lat="48.12588" lon="-4.28449">
        <ele>28.015502929688</ele>
        <time>2015-12-01T14:23:29Z</time>
      </trkpt>
      <trkpt lat="48.12594" lon="-4.28459">
        <ele>27.054321289062</ele>
        <time>2015-12-01T14:23:37Z</time>
      </trkpt>
      <trkpt lat="48.12597" lon="-4.28461">
        <ele>26.573608398438</ele>
        <time>2015-12-01T14:23:40Z</time>
      </trkpt>
      <trkpt lat="48.12602" lon="-4.28469">
        <ele>26.573608398438</ele>
        <time>2015-12-01T14:23:46Z</time>
      </trkpt>
      <trkpt lat="48.12606" lon="-4.28474">
        <ele>25.6123046875</ele>
        <time>2015-12-01T14:23:53Z</time>
      </trkpt>
      <trkpt lat="48.12607" lon="-4.28472">
        <ele>25.131713867188</ele>
        <time>2015-12-01T14:23:55Z</time>
      </trkpt>
      <trkpt lat="48.12609" lon="-4.28464">
        <ele>23.689575195312</ele>
        <time>2015-12-01T14:24:01Z</time>
      </trkpt>
      <trkpt lat="48.12613" lon="-4.28457">
        <ele>25.6123046875</ele>
        <time>2015-12-01T14:24:05Z</time>
      </trkpt>
      <trkpt lat="48.12616" lon="-4.28445">
        <ele>25.6123046875</ele>
        <time>2015-12-01T14:24:11Z</time>
      </trkpt>
      <trkpt lat="48.12618" lon="-4.28437">
        <ele>26.092895507812</ele>
        <time>2015-12-01T14:24:15Z</time>
      </trkpt>
      <trkpt lat="48.12619" lon="-4.28424">
        <ele>26.573608398438</ele>
        <time>2015-12-01T14:24:22Z</time>
      </trkpt>
      <trkpt lat="48.12621" lon="-4.28411">
        <ele>26.573608398438</ele>
        <time>2015-12-01T14:24:29Z</time>
      </trkpt>
      <trkpt lat="48.12622" lon="-4.28406">
        <ele>26.573608398438</ele>
        <time>2015-12-01T14:24:32Z</time>
      </trkpt>
      <trkpt lat="48.12623" lon="-4.28394">
        <ele>26.573608398438</ele>
        <time>2015-12-01T14:24:38Z</time>
      </trkpt>
      <trkpt lat="48.12623" lon="-4.28386">
        <ele>26.573608398438</ele>
        <time>2015-12-01T14:24:43Z</time>
      </trkpt>
      <trkpt lat="48.12625" lon="-4.28371">
        <ele>28.015502929688</ele>
        <time>2015-12-01T14:24:51Z</time>
      </trkpt>
      <trkpt lat="48.1263" lon="-4.28358">
        <ele>29.45751953125</ele>
        <time>2015-12-01T14:24:59Z</time>
      </trkpt>
      <trkpt lat="48.12637" lon="-4.28344">
        <ele>30.899536132812</ele>
        <time>2015-12-01T14:25:08Z</time>
      </trkpt>
      <trkpt lat="48.12641" lon="-4.28331">
        <ele>30.418823242188</ele>
        <time>2015-12-01T14:25:15Z</time>
      </trkpt>
      <trkpt lat="48.12644" lon="-4.28321">
        <ele>31.380126953125</ele>
        <time>2015-12-01T14:25:21Z</time>
      </trkpt>
      <trkpt lat="48.12646" lon="-4.2831">
        <ele>32.341552734375</ele>
        <time>2015-12-01T14:25:27Z</time>
      </trkpt>
      <trkpt lat="48.12649" lon="-4.28296">
        <ele>32.822265625</ele>
        <time>2015-12-01T14:25:34Z</time>
      </trkpt>
      <trkpt lat="48.12654" lon="-4.28283">
        <ele>29.938110351562</ele>
        <time>2015-12-01T14:25:42Z</time>
      </trkpt>
      <trkpt lat="48.12656" lon="-4.28273">
        <ele>29.45751953125</ele>
        <time>2015-12-01T14:25:47Z</time>
      </trkpt>
      <trkpt lat="48.12656" lon="-4.28263">
        <ele>29.45751953125</ele>
        <time>2015-12-01T14:25:52Z</time>
      </trkpt>
      <trkpt lat="48.12662" lon="-4.28255">
        <ele>30.899536132812</ele>
        <time>2015-12-01T14:25:59Z</time>
      </trkpt>
      <trkpt lat="48.12666" lon="-4.28253">
        <ele>31.380126953125</ele>
        <time>2015-12-01T14:26:03Z</time>
      </trkpt>
      <trkpt lat="48.12672" lon="-4.28247">
        <ele>31.380126953125</ele>
        <time>2015-12-01T14:26:09Z</time>
      </trkpt>
      <trkpt lat="48.12681" lon="-4.28245">
        <ele>30.899536132812</ele>
        <time>2015-12-01T14:26:16Z</time>
      </trkpt>
      <trkpt lat="48.12683" lon="-4.28246">
        <ele>30.418823242188</ele>
        <time>2015-12-01T14:26:18Z</time>
      </trkpt>
      <trkpt lat="48.12685" lon="-4.28248">
        <ele>29.938110351562</ele>
        <time>2015-12-01T14:26:24Z</time>
      </trkpt>
      <trkpt lat="48.12687" lon="-4.28246">
        <ele>29.45751953125</ele>
        <time>2015-12-01T14:26:27Z</time>
      </trkpt>
      <trkpt lat="48.12696" lon="-4.28239">
        <ele>29.45751953125</ele>
        <time>2015-12-01T14:26:35Z</time>
      </trkpt>
      <trkpt lat="48.12703" lon="-4.28234">
        <ele>28.976928710938</ele>
        <time>2015-12-01T14:26:41Z</time>
      </trkpt>
      <trkpt lat="48.12713" lon="-4.28221">
        <ele>28.976928710938</ele>
        <time>2015-12-01T14:26:51Z</time>
      </trkpt>
      <trkpt lat="48.1272" lon="-4.28208">
        <ele>28.015502929688</ele>
        <time>2015-12-01T14:26:59Z</time>
      </trkpt>
      <trkpt lat="48.12726" lon="-4.28199">
        <ele>26.092895507812</ele>
        <time>2015-12-01T14:27:06Z</time>
      </trkpt>
      <trkpt lat="48.12735" lon="-4.28186">
        <ele>25.131713867188</ele>
        <time>2015-12-01T14:27:16Z</time>
      </trkpt>
      <trkpt lat="48.12742" lon="-4.2818">
        <ele>27.534912109375</ele>
        <time>2015-12-01T14:27:20Z</time>
      </trkpt>
      <trkpt lat="48.12748" lon="-4.28171">
        <ele>30.418823242188</ele>
        <time>2015-12-01T14:27:26Z</time>
      </trkpt>
      <trkpt lat="48.12753" lon="-4.2816">
        <ele>31.860717773438</ele>
        <time>2015-12-01T14:27:33Z</time>
      </trkpt>
      <trkpt lat="48.12754" lon="-4.28158">
        <ele>32.341552734375</ele>
        <time>2015-12-01T14:27:34Z</time>
      </trkpt>
      <trkpt lat="48.12761" lon="-4.28145">
        <ele>31.860717773438</ele>
        <time>2015-12-01T14:27:42Z</time>
      </trkpt>
      <trkpt lat="48.12766" lon="-4.28129">
        <ele>30.899536132812</ele>
        <time>2015-12-01T14:27:51Z</time>
      </trkpt>
      <trkpt lat="48.12769" lon="-4.28112">
        <ele>29.938110351562</ele>
        <time>2015-12-01T14:28:00Z</time>
      </trkpt>
      <trkpt lat="48.12771" lon="-4.28096">
        <ele>28.976928710938</ele>
        <time>2015-12-01T14:28:08Z</time>
      </trkpt>
      <trkpt lat="48.12772" lon="-4.28093">
        <ele>28.496215820312</ele>
        <time>2015-12-01T14:28:09Z</time>
      </trkpt>
      <trkpt lat="48.12776" lon="-4.28082">
        <ele>28.976928710938</ele>
        <time>2015-12-01T14:28:16Z</time>
      </trkpt>
      <trkpt lat="48.12782" lon="-4.28075">
        <ele>30.899536132812</ele>
        <time>2015-12-01T14:28:22Z</time>
      </trkpt>
      <trkpt lat="48.1279" lon="-4.28074">
        <ele>28.976928710938</ele>
        <time>2015-12-01T14:28:29Z</time>
      </trkpt>
      <trkpt lat="48.12798" lon="-4.28075">
        <ele>27.534912109375</ele>
        <time>2015-12-01T14:28:36Z</time>
      </trkpt>
      <trkpt lat="48.12805" lon="-4.28071">
        <ele>26.092895507812</ele>
        <time>2015-12-01T14:28:42Z</time>
      </trkpt>
      <trkpt lat="48.12813" lon="-4.28059">
        <ele>25.6123046875</ele>
        <time>2015-12-01T14:28:50Z</time>
      </trkpt>
      <trkpt lat="48.12821" lon="-4.28048">
        <ele>25.131713867188</ele>
        <time>2015-12-01T14:28:58Z</time>
      </trkpt>
      <trkpt lat="48.1283" lon="-4.28036">
        <ele>24.651000976562</ele>
        <time>2015-12-01T14:29:07Z</time>
      </trkpt>
      <trkpt lat="48.12836" lon="-4.28023">
        <ele>23.689575195312</ele>
        <time>2015-12-01T14:29:15Z</time>
      </trkpt>
      <trkpt lat="48.1284" lon="-4.28012">
        <ele>23.689575195312</ele>
        <time>2015-12-01T14:29:22Z</time>
      </trkpt>
      <trkpt lat="48.12844" lon="-4.28">
        <ele>23.208984375</ele>
        <time>2015-12-01T14:29:29Z</time>
      </trkpt>
      <trkpt lat="48.12848" lon="-4.27987">
        <ele>25.131713867188</ele>
        <time>2015-12-01T14:29:36Z</time>
      </trkpt>
      <trkpt lat="48.12848" lon="-4.27978">
        <ele>25.6123046875</ele>
        <time>2015-12-01T14:29:41Z</time>
      </trkpt>
      <trkpt lat="48.12846" lon="-4.27969">
        <ele>24.651000976562</ele>
        <time>2015-12-01T14:29:49Z</time>
      </trkpt>
      <trkpt lat="48.12844" lon="-4.2796">
        <ele>25.131713867188</ele>
        <time>2015-12-01T14:29:56Z</time>
      </trkpt>
      <trkpt lat="48.12843" lon="-4.27952">
        <ele>23.689575195312</ele>
        <time>2015-12-01T14:30:01Z</time>
      </trkpt>
      <trkpt lat="48.12843" lon="-4.27943">
        <ele>23.208984375</ele>
        <time>2015-12-01T14:30:06Z</time>
      </trkpt>
      <trkpt lat="48.12845" lon="-4.27928">
        <ele>24.651000976562</ele>
        <time>2015-12-01T14:30:14Z</time>
      </trkpt>
      <trkpt lat="48.12847" lon="-4.2792">
        <ele>24.651000976562</ele>
        <time>2015-12-01T14:30:18Z</time>
      </trkpt>
      <trkpt lat="48.12849" lon="-4.27912">
        <ele>24.651000976562</ele>
        <time>2015-12-01T14:30:23Z</time>
      </trkpt>
      <trkpt lat="48.12852" lon="-4.27909">
        <ele>25.6123046875</ele>
        <time>2015-12-01T14:30:26Z</time>
      </trkpt>
      <trkpt lat="48.12857" lon="-4.27898">
        <ele>26.092895507812</ele>
        <time>2015-12-01T14:30:33Z</time>
      </trkpt>
      <trkpt lat="48.12858" lon="-4.27895">
        <ele>26.573608398438</ele>
        <time>2015-12-01T14:30:37Z</time>
      </trkpt>
      <trkpt lat="48.12865" lon="-4.27888">
        <ele>26.573608398438</ele>
        <time>2015-12-01T14:30:44Z</time>
      </trkpt>
      <trkpt lat="48.12872" lon="-4.2788">
        <ele>26.573608398438</ele>
        <time>2015-12-01T14:30:51Z</time>
      </trkpt>
      <trkpt lat="48.12877" lon="-4.27881">
        <ele>26.092895507812</ele>
        <time>2015-12-01T14:30:56Z</time>
      </trkpt>
      <trkpt lat="48.12881" lon="-4.27878">
        <ele>26.573608398438</ele>
        <time>2015-12-01T14:31:01Z</time>
      </trkpt>
      <trkpt lat="48.12884" lon="-4.27874">
        <ele>26.573608398438</ele>
        <time>2015-12-01T14:31:05Z</time>
      </trkpt>
      <trkpt lat="48.12891" lon="-4.27871">
        <ele>27.534912109375</ele>
        <time>2015-12-01T14:31:11Z</time>
      </trkpt>
      <trkpt lat="48.12901" lon="-4.27868">
        <ele>28.015502929688</ele>
        <time>2015-12-01T14:31:19Z</time>
      </trkpt>
      <trkpt lat="48.12911" lon="-4.27866">
        <ele>28.496215820312</ele>
        <time>2015-12-01T14:31:27Z</time>
      </trkpt>
      <trkpt lat="48.1292" lon="-4.27866">
        <ele>29.45751953125</ele>
        <time>2015-12-01T14:31:34Z</time>
      </trkpt>
      <trkpt lat="48.12931" lon="-4.27867">
        <ele>29.45751953125</ele>
        <time>2015-12-01T14:31:43Z</time>
      </trkpt>
      <trkpt lat="48.1294" lon="-4.27867">
        <ele>30.899536132812</ele>
        <time>2015-12-01T14:31:51Z</time>
      </trkpt>
      <trkpt lat="48.12945" lon="-4.27866">
        <ele>31.380126953125</ele>
        <time>2015-12-01T14:31:56Z</time>
      </trkpt>
      <trkpt lat="48.12951" lon="-4.27862">
        <ele>32.341552734375</ele>
        <time>2015-12-01T14:32:02Z</time>
      </trkpt>
      <trkpt lat="48.12953" lon="-4.27862">
        <ele>31.380126953125</ele>
        <time>2015-12-01T14:32:07Z</time>
      </trkpt>
      <trkpt lat="48.12959" lon="-4.27863">
        <ele>30.418823242188</ele>
        <time>2015-12-01T14:32:12Z</time>
      </trkpt>
      <trkpt lat="48.12967" lon="-4.27856">
        <ele>29.938110351562</ele>
        <time>2015-12-01T14:32:19Z</time>
      </trkpt>
      <trkpt lat="48.12967" lon="-4.27855">
        <ele>30.418823242188</ele>
        <time>2015-12-01T14:32:20Z</time>
      </trkpt>
      <trkpt lat="48.12973" lon="-4.27851">
        <ele>29.45751953125</ele>
        <time>2015-12-01T14:32:26Z</time>
      </trkpt>
      <trkpt lat="48.12976" lon="-4.27848">
        <ele>29.45751953125</ele>
        <time>2015-12-01T14:32:31Z</time>
      </trkpt>
      <trkpt lat="48.12981" lon="-4.27843">
        <ele>27.054321289062</ele>
        <time>2015-12-01T14:32:37Z</time>
      </trkpt>
      <trkpt lat="48.12986" lon="-4.27838">
        <ele>25.131713867188</ele>
        <time>2015-12-01T14:32:43Z</time>
      </trkpt>
      <trkpt lat="48.12987" lon="-4.27838">
        <ele>24.651000976562</ele>
        <time>2015-12-01T14:32:44Z</time>
      </trkpt>
      <trkpt lat="48.12998" lon="-4.27827">
        <ele>24.170288085938</ele>
        <time>2015-12-01T14:32:54Z</time>
      </trkpt>
      <trkpt lat="48.13004" lon="-4.27814">
        <ele>24.170288085938</ele>
        <time>2015-12-01T14:33:02Z</time>
      </trkpt>
      <trkpt lat="48.13009" lon="-4.27805">
        <ele>25.6123046875</ele>
        <time>2015-12-01T14:33:09Z</time>
      </trkpt>
      <trkpt lat="48.13012" lon="-4.27796">
        <ele>26.573608398438</ele>
        <time>2015-12-01T14:33:16Z</time>
      </trkpt>
      <trkpt lat="48.13016" lon="-4.27788">
        <ele>28.015502929688</ele>
        <time>2015-12-01T14:33:24Z</time>
      </trkpt>
      <trkpt lat="48.13019" lon="-4.27781">
        <ele>29.45751953125</ele>
        <time>2015-12-01T14:33:30Z</time>
      </trkpt>
      <trkpt lat="48.13023" lon="-4.27774">
        <ele>30.418823242188</ele>
        <time>2015-12-01T14:33:36Z</time>
      </trkpt>
      <trkpt lat="48.13028" lon="-4.27762">
        <ele>29.938110351562</ele>
        <time>2015-12-01T14:33:44Z</time>
      </trkpt>
      <trkpt lat="48.13032" lon="-4.27753">
        <ele>30.418823242188</ele>
        <time>2015-12-01T14:33:51Z</time>
      </trkpt>
      <trkpt lat="48.13038" lon="-4.27748">
        <ele>31.380126953125</ele>
        <time>2015-12-01T14:33:57Z</time>
      </trkpt>
      <trkpt lat="48.13046" lon="-4.27742">
        <ele>30.899536132812</ele>
        <time>2015-12-01T14:34:04Z</time>
      </trkpt>
      <trkpt lat="48.13053" lon="-4.27734">
        <ele>30.418823242188</ele>
        <time>2015-12-01T14:34:11Z</time>
      </trkpt>
      <trkpt lat="48.13061" lon="-4.27728">
        <ele>30.418823242188</ele>
        <time>2015-12-01T14:34:18Z</time>
      </trkpt>
      <trkpt lat="48.1307" lon="-4.27718">
        <ele>29.938110351562</ele>
        <time>2015-12-01T14:34:27Z</time>
      </trkpt>
      <trkpt lat="48.1308" lon="-4.27706">
        <ele>29.938110351562</ele>
        <time>2015-12-01T14:34:37Z</time>
      </trkpt>
      <trkpt lat="48.13087" lon="-4.27695">
        <ele>29.938110351562</ele>
        <time>2015-12-01T14:34:44Z</time>
      </trkpt>
      <trkpt lat="48.13091" lon="-4.27689">
        <ele>29.938110351562</ele>
        <time>2015-12-01T14:34:49Z</time>
      </trkpt>
      <trkpt lat="48.13093" lon="-4.27682">
        <ele>30.899536132812</ele>
        <time>2015-12-01T14:34:54Z</time>
      </trkpt>
      <trkpt lat="48.13096" lon="-4.27673">
        <ele>31.380126953125</ele>
        <time>2015-12-01T14:35:00Z</time>
      </trkpt>
      <trkpt lat="48.131" lon="-4.27664">
        <ele>31.380126953125</ele>
        <time>2015-12-01T14:35:07Z</time>
      </trkpt>
      <trkpt lat="48.13103" lon="-4.27658">
        <ele>31.860717773438</ele>
        <time>2015-12-01T14:35:11Z</time>
      </trkpt>
      <trkpt lat="48.13108" lon="-4.2765">
        <ele>32.822265625</ele>
        <time>2015-12-01T14:35:17Z</time>
      </trkpt>
      <trkpt lat="48.13113" lon="-4.27638">
        <ele>34.26416015625</ele>
        <time>2015-12-01T14:35:25Z</time>
      </trkpt>
      <trkpt lat="48.13116" lon="-4.27628">
        <ele>35.225463867188</ele>
        <time>2015-12-01T14:35:32Z</time>
      </trkpt>
      <trkpt lat="48.13118" lon="-4.27621">
        <ele>36.66748046875</ele>
        <time>2015-12-01T14:35:38Z</time>
      </trkpt>
      <trkpt lat="48.1312" lon="-4.27615">
        <ele>37.628662109375</ele>
        <time>2015-12-01T14:35:44Z</time>
      </trkpt>
      <trkpt lat="48.13122" lon="-4.27607">
        <ele>38.590087890625</ele>
        <time>2015-12-01T14:35:51Z</time>
      </trkpt>
      <trkpt lat="48.13124" lon="-4.27601">
        <ele>39.55126953125</ele>
        <time>2015-12-01T14:35:56Z</time>
      </trkpt>
      <trkpt lat="48.13125" lon="-4.27595">
        <ele>40.993408203125</ele>
        <time>2015-12-01T14:36:02Z</time>
      </trkpt>
      <trkpt lat="48.13126" lon="-4.27596">
        <ele>40.993408203125</ele>
        <time>2015-12-01T14:36:12Z</time>
      </trkpt>
      <trkpt lat="48.13126" lon="-4.27595">
        <ele>41.473999023438</ele>
        <time>2015-12-01T14:36:44Z</time>
      </trkpt>
      <trkpt lat="48.13127" lon="-4.27587">
        <ele>41.473999023438</ele>
        <time>2015-12-01T14:36:51Z</time>
      </trkpt>
      <trkpt lat="48.13129" lon="-4.27581">
        <ele>41.954711914062</ele>
        <time>2015-12-01T14:36:57Z</time>
      </trkpt>
      <trkpt lat="48.13131" lon="-4.27578">
        <ele>41.954711914062</ele>
        <time>2015-12-01T14:37:01Z</time>
      </trkpt>
      <trkpt lat="48.13136" lon="-4.27573">
        <ele>41.954711914062</ele>
        <time>2015-12-01T14:37:08Z</time>
      </trkpt>
      <trkpt lat="48.13141" lon="-4.27571">
        <ele>41.954711914062</ele>
        <time>2015-12-01T14:37:14Z</time>
      </trkpt>
      <trkpt lat="48.13146" lon="-4.27573">
        <ele>40.993408203125</ele>
        <time>2015-12-01T14:37:20Z</time>
      </trkpt>
      <trkpt lat="48.13151" lon="-4.27575">
        <ele>39.55126953125</ele>
        <time>2015-12-01T14:37:27Z</time>
      </trkpt>
      <trkpt lat="48.13156" lon="-4.27579">
        <ele>38.109375</ele>
        <time>2015-12-01T14:37:34Z</time>
      </trkpt>
      <trkpt lat="48.13161" lon="-4.27581">
        <ele>37.148071289062</ele>
        <time>2015-12-01T14:37:40Z</time>
      </trkpt>
      <trkpt lat="48.13165" lon="-4.27584">
        <ele>35.7060546875</ele>
        <time>2015-12-01T14:37:48Z</time>
      </trkpt>
      <trkpt lat="48.13167" lon="-4.27587">
        <ele>34.744873046875</ele>
        <time>2015-12-01T14:37:53Z</time>
      </trkpt>
      <trkpt lat="48.13169" lon="-4.27591">
        <ele>33.783447265625</ele>
        <time>2015-12-01T14:37:59Z</time>
      </trkpt>
      <trkpt lat="48.13168" lon="-4.27598">
        <ele>32.822265625</ele>
        <time>2015-12-01T14:38:06Z</time>
      </trkpt>
      <trkpt lat="48.1317" lon="-4.27602">
        <ele>31.380126953125</ele>
        <time>2015-12-01T14:38:11Z</time>
      </trkpt>
      <trkpt lat="48.13175" lon="-4.27605">
        <ele>29.45751953125</ele>
        <time>2015-12-01T14:38:17Z</time>
      </trkpt>
      <trkpt lat="48.13179" lon="-4.27607">
        <ele>28.015502929688</ele>
        <time>2015-12-01T14:38:22Z</time>
      </trkpt>
      <trkpt lat="48.13181" lon="-4.27608">
        <ele>27.534912109375</ele>
        <time>2015-12-01T14:38:23Z</time>
      </trkpt>
      <trkpt lat="48.13184" lon="-4.27607">
        <ele>26.573608398438</ele>
        <time>2015-12-01T14:38:25Z</time>
      </trkpt>
      <trkpt lat="48.13187" lon="-4.27607">
        <ele>26.092895507812</ele>
        <time>2015-12-01T14:38:28Z</time>
      </trkpt>
      <trkpt lat="48.13192" lon="-4.27607">
        <ele>26.092895507812</ele>
        <time>2015-12-01T14:38:32Z</time>
      </trkpt>
      <trkpt lat="48.13202" lon="-4.27605">
        <ele>25.131713867188</ele>
        <time>2015-12-01T14:38:40Z</time>
      </trkpt>
      <trkpt lat="48.13215" lon="-4.27601">
        <ele>24.170288085938</ele>
        <time>2015-12-01T14:38:51Z</time>
      </trkpt>
      <trkpt lat="48.13224" lon="-4.27595">
        <ele>24.170288085938</ele>
        <time>2015-12-01T14:38:59Z</time>
      </trkpt>
      <trkpt lat="48.13233" lon="-4.27589">
        <ele>24.170288085938</ele>
        <time>2015-12-01T14:39:06Z</time>
      </trkpt>
      <trkpt lat="48.13236" lon="-4.27584">
        <ele>24.170288085938</ele>
        <time>2015-12-01T14:39:10Z</time>
      </trkpt>
      <trkpt lat="48.13236" lon="-4.27576">
        <ele>26.092895507812</ele>
        <time>2015-12-01T14:39:17Z</time>
      </trkpt>
      <trkpt lat="48.13236" lon="-4.27571">
        <ele>27.054321289062</ele>
        <time>2015-12-01T14:39:22Z</time>
      </trkpt>
      <trkpt lat="48.13236" lon="-4.27566">
        <ele>29.45751953125</ele>
        <time>2015-12-01T14:39:27Z</time>
      </trkpt>
      <trkpt lat="48.13239" lon="-4.27559">
        <ele>31.380126953125</ele>
        <time>2015-12-01T14:39:33Z</time>
      </trkpt>
      <trkpt lat="48.13245" lon="-4.27558">
        <ele>32.341552734375</ele>
        <time>2015-12-01T14:39:38Z</time>
      </trkpt>
      <trkpt lat="48.13256" lon="-4.27555">
        <ele>32.341552734375</ele>
        <time>2015-12-01T14:39:47Z</time>
      </trkpt>
      <trkpt lat="48.13265" lon="-4.27555">
        <ele>32.341552734375</ele>
        <time>2015-12-01T14:39:54Z</time>
      </trkpt>
      <trkpt lat="48.13275" lon="-4.27555">
        <ele>32.341552734375</ele>
        <time>2015-12-01T14:40:02Z</time>
      </trkpt>
      <trkpt lat="48.13283" lon="-4.27554">
        <ele>31.860717773438</ele>
        <time>2015-12-01T14:40:09Z</time>
      </trkpt>
      <trkpt lat="48.13284" lon="-4.27553">
        <ele>31.860717773438</ele>
        <time>2015-12-01T14:40:10Z</time>
      </trkpt>
      <trkpt lat="48.13291" lon="-4.27554">
        <ele>29.938110351562</ele>
        <time>2015-12-01T14:40:16Z</time>
      </trkpt>
      <trkpt lat="48.13295" lon="-4.27554">
        <ele>29.45751953125</ele>
        <time>2015-12-01T14:40:20Z</time>
      </trkpt>
      <trkpt lat="48.13299" lon="-4.27558">
        <ele>28.015502929688</ele>
        <time>2015-12-01T14:40:25Z</time>
      </trkpt>
      <trkpt lat="48.133" lon="-4.27558">
        <ele>27.534912109375</ele>
        <time>2015-12-01T14:40:26Z</time>
      </trkpt>
      <trkpt lat="48.13306" lon="-4.27559">
        <ele>26.092895507812</ele>
        <time>2015-12-01T14:40:31Z</time>
      </trkpt>
      <trkpt lat="48.13313" lon="-4.27554">
        <ele>24.651000976562</ele>
        <time>2015-12-01T14:40:38Z</time>
      </trkpt>
      <trkpt lat="48.13319" lon="-4.27548">
        <ele>23.689575195312</ele>
        <time>2015-12-01T14:40:45Z</time>
      </trkpt>
      <trkpt lat="48.13325" lon="-4.27544">
        <ele>23.689575195312</ele>
        <time>2015-12-01T14:40:51Z</time>
      </trkpt>
      <trkpt lat="48.13332" lon="-4.27537">
        <ele>23.208984375</ele>
        <time>2015-12-01T14:40:57Z</time>
      </trkpt>
      <trkpt lat="48.13334" lon="-4.27535">
        <ele>22.24755859375</ele>
        <time>2015-12-01T14:41:00Z</time>
      </trkpt>
      <trkpt lat="48.13338" lon="-4.27523">
        <ele>21.286376953125</ele>
        <time>2015-12-01T14:41:08Z</time>
      </trkpt>
      <trkpt lat="48.13345" lon="-4.2751">
        <ele>21.286376953125</ele>
        <time>2015-12-01T14:41:17Z</time>
      </trkpt>
      <trkpt lat="48.13347" lon="-4.27498">
        <ele>20.8056640625</ele>
        <time>2015-12-01T14:41:24Z</time>
      </trkpt>
      <trkpt lat="48.13351" lon="-4.27486">
        <ele>22.24755859375</ele>
        <time>2015-12-01T14:41:31Z</time>
      </trkpt>
      <trkpt lat="48.13352" lon="-4.2747">
        <ele>22.24755859375</ele>
        <time>2015-12-01T14:41:39Z</time>
      </trkpt>
      <trkpt lat="48.13352" lon="-4.27454">
        <ele>21.286376953125</ele>
        <time>2015-12-01T14:41:48Z</time>
      </trkpt>
      <trkpt lat="48.13353" lon="-4.27439">
        <ele>21.286376953125</ele>
        <time>2015-12-01T14:41:56Z</time>
      </trkpt>
      <trkpt lat="48.13353" lon="-4.27427">
        <ele>21.286376953125</ele>
        <time>2015-12-01T14:42:02Z</time>
      </trkpt>
      <trkpt lat="48.13354" lon="-4.2742">
        <ele>20.324951171875</ele>
        <time>2015-12-01T14:42:07Z</time>
      </trkpt>
      <trkpt lat="48.13355" lon="-4.27411">
        <ele>19.36376953125</ele>
        <time>2015-12-01T14:42:12Z</time>
      </trkpt>
      <trkpt lat="48.13355" lon="-4.27408">
        <ele>18.40234375</ele>
        <time>2015-12-01T14:42:14Z</time>
      </trkpt>
      <trkpt lat="48.13355" lon="-4.27395">
        <ele>16.479736328125</ele>
        <time>2015-12-01T14:42:21Z</time>
      </trkpt>
      <trkpt lat="48.13352" lon="-4.27389">
        <ele>15.518432617188</ele>
        <time>2015-12-01T14:42:24Z</time>
      </trkpt>
      <trkpt lat="48.13351" lon="-4.27388">
        <ele>15.037719726562</ele>
        <time>2015-12-01T14:42:25Z</time>
      </trkpt>
      <trkpt lat="48.13343" lon="-4.27385">
        <ele>14.076416015625</ele>
        <time>2015-12-01T14:42:32Z</time>
      </trkpt>
      <trkpt lat="48.13339" lon="-4.27384">
        <ele>14.557006835938</ele>
        <time>2015-12-01T14:42:35Z</time>
      </trkpt>
      <trkpt lat="48.13338" lon="-4.27382">
        <ele>15.037719726562</ele>
        <time>2015-12-01T14:42:37Z</time>
      </trkpt>
      <trkpt lat="48.13336" lon="-4.27374">
        <ele>14.557006835938</ele>
        <time>2015-12-01T14:42:43Z</time>
      </trkpt>
      <trkpt lat="48.13331" lon="-4.27367">
        <ele>15.037719726562</ele>
        <time>2015-12-01T14:42:48Z</time>
      </trkpt>
      <trkpt lat="48.13327" lon="-4.27362">
        <ele>14.076416015625</ele>
        <time>2015-12-01T14:42:52Z</time>
      </trkpt>
      <trkpt lat="48.1332" lon="-4.27353">
        <ele>14.557006835938</ele>
        <time>2015-12-01T14:42:59Z</time>
      </trkpt>
      <trkpt lat="48.13315" lon="-4.27345">
        <ele>15.037719726562</ele>
        <time>2015-12-01T14:43:07Z</time>
      </trkpt>
      <trkpt lat="48.13315" lon="-4.27344">
        <ele>15.518432617188</ele>
        <time>2015-12-01T14:43:08Z</time>
      </trkpt>
      <trkpt lat="48.13315" lon="-4.27328">
        <ele>18.40234375</ele>
        <time>2015-12-01T14:43:18Z</time>
      </trkpt>
      <trkpt lat="48.13314" lon="-4.27327">
        <ele>18.883056640625</ele>
        <time>2015-12-01T14:43:19Z</time>
      </trkpt>
      <trkpt lat="48.1331" lon="-4.27322">
        <ele>19.844360351562</ele>
        <time>2015-12-01T14:43:26Z</time>
      </trkpt>
      <trkpt lat="48.13308" lon="-4.27321">
        <ele>22.728271484375</ele>
        <time>2015-12-01T14:43:33Z</time>
      </trkpt>
      <trkpt lat="48.13302" lon="-4.27322">
        <ele>21.766967773438</ele>
        <time>2015-12-01T14:43:41Z</time>
      </trkpt>
      <trkpt lat="48.13293" lon="-4.27325">
        <ele>21.766967773438</ele>
        <time>2015-12-01T14:43:50Z</time>
      </trkpt>
      <trkpt lat="48.13292" lon="-4.27325">
        <ele>22.24755859375</ele>
        <time>2015-12-01T14:43:51Z</time>
      </trkpt>
      <trkpt lat="48.13288" lon="-4.27328">
        <ele>25.131713867188</ele>
        <time>2015-12-01T14:43:59Z</time>
      </trkpt>
      <trkpt lat="48.13284" lon="-4.27328">
        <ele>27.054321289062</ele>
        <time>2015-12-01T14:44:07Z</time>
      </trkpt>
      <trkpt lat="48.13284" lon="-4.27321">
        <ele>26.573608398438</ele>
        <time>2015-12-01T14:44:13Z</time>
      </trkpt>
      <trkpt lat="48.13283" lon="-4.27314">
        <ele>26.573608398438</ele>
        <time>2015-12-01T14:44:18Z</time>
      </trkpt>
      <trkpt lat="48.13285" lon="-4.27305">
        <ele>25.131713867188</ele>
        <time>2015-12-01T14:44:24Z</time>
      </trkpt>
      <trkpt lat="48.13284" lon="-4.27293">
        <ele>22.728271484375</ele>
        <time>2015-12-01T14:44:31Z</time>
      </trkpt>
      <trkpt lat="48.13285" lon="-4.27283">
        <ele>23.208984375</ele>
        <time>2015-12-01T14:44:37Z</time>
      </trkpt>
      <trkpt lat="48.13287" lon="-4.27272">
        <ele>23.208984375</ele>
        <time>2015-12-01T14:44:44Z</time>
      </trkpt>
      <trkpt lat="48.13287" lon="-4.27259">
        <ele>23.689575195312</ele>
        <time>2015-12-01T14:44:51Z</time>
      </trkpt>
      <trkpt lat="48.13288" lon="-4.27245">
        <ele>23.208984375</ele>
        <time>2015-12-01T14:44:59Z</time>
      </trkpt>
      <trkpt lat="48.13288" lon="-4.27238">
        <ele>19.844360351562</ele>
        <time>2015-12-01T14:45:05Z</time>
      </trkpt>
      <trkpt lat="48.13294" lon="-4.27229">
        <ele>22.728271484375</ele>
        <time>2015-12-01T14:45:11Z</time>
      </trkpt>
      <trkpt lat="48.13295" lon="-4.27224">
        <ele>21.766967773438</ele>
        <time>2015-12-01T14:45:14Z</time>
      </trkpt>
      <trkpt lat="48.13297" lon="-4.27217">
        <ele>23.208984375</ele>
        <time>2015-12-01T14:45:18Z</time>
      </trkpt>
      <trkpt lat="48.13299" lon="-4.27212">
        <ele>24.170288085938</ele>
        <time>2015-12-01T14:45:21Z</time>
      </trkpt>
      <trkpt lat="48.13299" lon="-4.27204">
        <ele>22.728271484375</ele>
        <time>2015-12-01T14:45:26Z</time>
      </trkpt>
      <trkpt lat="48.13302" lon="-4.27198">
        <ele>23.689575195312</ele>
        <time>2015-12-01T14:45:30Z</time>
      </trkpt>
      <trkpt lat="48.13301" lon="-4.2719">
        <ele>23.208984375</ele>
        <time>2015-12-01T14:45:34Z</time>
      </trkpt>
      <trkpt lat="48.13295" lon="-4.27183">
        <ele>22.24755859375</ele>
        <time>2015-12-01T14:45:38Z</time>
      </trkpt>
      <trkpt lat="48.13288" lon="-4.27178">
        <ele>20.8056640625</ele>
        <time>2015-12-01T14:45:44Z</time>
      </trkpt>
      <trkpt lat="48.13283" lon="-4.27173">
        <ele>20.8056640625</ele>
        <time>2015-12-01T14:45:49Z</time>
      </trkpt>
      <trkpt lat="48.1328" lon="-4.27171">
        <ele>20.8056640625</ele>
        <time>2015-12-01T14:45:52Z</time>
      </trkpt>
      <trkpt lat="48.13277" lon="-4.27166">
        <ele>20.324951171875</ele>
        <time>2015-12-01T14:45:57Z</time>
      </trkpt>
      <trkpt lat="48.13276" lon="-4.27167">
        <ele>20.8056640625</ele>
        <time>2015-12-01T14:46:01Z</time>
      </trkpt>
      <trkpt lat="48.13273" lon="-4.27163">
        <ele>19.36376953125</ele>
        <time>2015-12-01T14:46:06Z</time>
      </trkpt>
      <trkpt lat="48.13272" lon="-4.27162">
        <ele>19.36376953125</ele>
        <time>2015-12-01T14:46:07Z</time>
      </trkpt>
      <trkpt lat="48.13265" lon="-4.27157">
        <ele>18.883056640625</ele>
        <time>2015-12-01T14:46:14Z</time>
      </trkpt>
      <trkpt lat="48.13259" lon="-4.27152">
        <ele>23.208984375</ele>
        <time>2015-12-01T14:46:20Z</time>
      </trkpt>
      <trkpt lat="48.13252" lon="-4.27151">
        <ele>25.6123046875</ele>
        <time>2015-12-01T14:46:26Z</time>
      </trkpt>
      <trkpt lat="48.13251" lon="-4.27152">
        <ele>25.131713867188</ele>
        <time>2015-12-01T14:46:30Z</time>
      </trkpt>
      <trkpt lat="48.13251" lon="-4.27149">
        <ele>25.6123046875</ele>
        <time>2015-12-01T14:46:35Z</time>
      </trkpt>
      <trkpt lat="48.13247" lon="-4.27145">
        <ele>24.651000976562</ele>
        <time>2015-12-01T14:46:40Z</time>
      </trkpt>
      <trkpt lat="48.13246" lon="-4.27143">
        <ele>19.844360351562</ele>
        <time>2015-12-01T14:46:45Z</time>
      </trkpt>
      <trkpt lat="48.13245" lon="-4.27141">
        <ele>16.96044921875</ele>
        <time>2015-12-01T14:46:49Z</time>
      </trkpt>
      <trkpt lat="48.13242" lon="-4.27139">
        <ele>14.076416015625</ele>
        <time>2015-12-01T14:46:54Z</time>
      </trkpt>
      <trkpt lat="48.1324" lon="-4.27135">
        <ele>12.15380859375</ele>
        <time>2015-12-01T14:46:59Z</time>
      </trkpt>
      <trkpt lat="48.13236" lon="-4.27128">
        <ele>8.7891845703125</ele>
        <time>2015-12-01T14:47:05Z</time>
      </trkpt>
      <trkpt lat="48.13233" lon="-4.27122">
        <ele>7.34716796875</ele>
        <time>2015-12-01T14:47:10Z</time>
      </trkpt>
      <trkpt lat="48.13228" lon="-4.27117">
        <ele>8.30859375</ele>
        <time>2015-12-01T14:47:15Z</time>
      </trkpt>
      <trkpt lat="48.1322" lon="-4.27115">
        <ele>13.115112304688</ele>
        <time>2015-12-01T14:47:21Z</time>
      </trkpt>
      <trkpt lat="48.13215" lon="-4.27111">
        <ele>18.883056640625</ele>
        <time>2015-12-01T14:47:26Z</time>
      </trkpt>
      <trkpt lat="48.13209" lon="-4.27108">
        <ele>20.324951171875</ele>
        <time>2015-12-01T14:47:32Z</time>
      </trkpt>
      <trkpt lat="48.13201" lon="-4.271">
        <ele>24.651000976562</ele>
        <time>2015-12-01T14:47:38Z</time>
      </trkpt>
      <trkpt lat="48.13195" lon="-4.2709">
        <ele>28.496215820312</ele>
        <time>2015-12-01T14:47:43Z</time>
      </trkpt>
      <trkpt lat="48.13194" lon="-4.2709">
        <ele>27.054321289062</ele>
        <time>2015-12-01T14:47:46Z</time>
      </trkpt>
      <trkpt lat="48.13186" lon="-4.27082">
        <ele>28.976928710938</ele>
        <time>2015-12-01T14:47:51Z</time>
      </trkpt>
      <trkpt lat="48.13185" lon="-4.27084">
        <ele>23.208984375</ele>
        <time>2015-12-01T14:47:54Z</time>
      </trkpt>
      <trkpt lat="48.13181" lon="-4.27085">
        <ele>17.921752929688</ele>
        <time>2015-12-01T14:47:59Z</time>
      </trkpt>
      <trkpt lat="48.13176" lon="-4.27083">
        <ele>15.037719726562</ele>
        <time>2015-12-01T14:48:05Z</time>
      </trkpt>
      <trkpt lat="48.13174" lon="-4.27081">
        <ele>13.595825195312</ele>
        <time>2015-12-01T14:48:07Z</time>
      </trkpt>
      <trkpt lat="48.13167" lon="-4.27074">
        <ele>17.441162109375</ele>
        <time>2015-12-01T14:48:14Z</time>
      </trkpt>
      <trkpt lat="48.13165" lon="-4.27073">
        <ele>15.518432617188</ele>
        <time>2015-12-01T14:48:18Z</time>
      </trkpt>
      <trkpt lat="48.13161" lon="-4.27069">
        <ele>14.076416015625</ele>
        <time>2015-12-01T14:48:22Z</time>
      </trkpt>
      <trkpt lat="48.13157" lon="-4.27065">
        <ele>15.518432617188</ele>
        <time>2015-12-01T14:48:27Z</time>
      </trkpt>
      <trkpt lat="48.13152" lon="-4.2706">
        <ele>15.037719726562</ele>
        <time>2015-12-01T14:48:33Z</time>
      </trkpt>
      <trkpt lat="48.13148" lon="-4.27057">
        <ele>15.518432617188</ele>
        <time>2015-12-01T14:48:35Z</time>
      </trkpt>
      <trkpt lat="48.13145" lon="-4.27053">
        <ele>16.479736328125</ele>
        <time>2015-12-01T14:48:38Z</time>
      </trkpt>
      <trkpt lat="48.13139" lon="-4.27045">
        <ele>22.24755859375</ele>
        <time>2015-12-01T14:48:42Z</time>
      </trkpt>
      <trkpt lat="48.13137" lon="-4.27041">
        <ele>23.689575195312</ele>
        <time>2015-12-01T14:48:44Z</time>
      </trkpt>
      <trkpt lat="48.13131" lon="-4.27036">
        <ele>22.728271484375</ele>
        <time>2015-12-01T14:48:50Z</time>
      </trkpt>
      <trkpt lat="48.13128" lon="-4.27032">
        <ele>24.651000976562</ele>
        <time>2015-12-01T14:48:53Z</time>
      </trkpt>
      <trkpt lat="48.13126" lon="-4.27035">
        <ele>20.324951171875</ele>
        <time>2015-12-01T14:48:58Z</time>
      </trkpt>
      <trkpt lat="48.13123" lon="-4.27033">
        <ele>18.40234375</ele>
        <time>2015-12-01T14:49:03Z</time>
      </trkpt>
      <trkpt lat="48.13122" lon="-4.27029">
        <ele>14.076416015625</ele>
        <time>2015-12-01T14:49:09Z</time>
      </trkpt>
      <trkpt lat="48.13121" lon="-4.27028">
        <ele>13.595825195312</ele>
        <time>2015-12-01T14:49:10Z</time>
      </trkpt>
      <trkpt lat="48.13117" lon="-4.27021">
        <ele>12.15380859375</ele>
        <time>2015-12-01T14:49:15Z</time>
      </trkpt>
      <trkpt lat="48.13114" lon="-4.27015">
        <ele>10.231201171875</ele>
        <time>2015-12-01T14:49:20Z</time>
      </trkpt>
      <trkpt lat="48.13112" lon="-4.27013">
        <ele>10.231201171875</ele>
        <time>2015-12-01T14:49:22Z</time>
      </trkpt>
      <trkpt lat="48.1311" lon="-4.27008">
        <ele>8.7891845703125</ele>
        <time>2015-12-01T14:49:26Z</time>
      </trkpt>
      <trkpt lat="48.13105" lon="-4.27003">
        <ele>8.7891845703125</ele>
        <time>2015-12-01T14:49:31Z</time>
      </trkpt>
      <trkpt lat="48.13103" lon="-4.27001">
        <ele>8.30859375</ele>
        <time>2015-12-01T14:49:33Z</time>
      </trkpt>
      <trkpt lat="48.13098" lon="-4.26994">
        <ele>7.34716796875</ele>
        <time>2015-12-01T14:49:38Z</time>
      </trkpt>
      <trkpt lat="48.13097" lon="-4.26993">
        <ele>7.34716796875</ele>
        <time>2015-12-01T14:49:39Z</time>
      </trkpt>
      <trkpt lat="48.13091" lon="-4.26979">
        <ele>7.827880859375</ele>
        <time>2015-12-01T14:49:48Z</time>
      </trkpt>
      <trkpt lat="48.13086" lon="-4.26969">
        <ele>9.2698974609375</ele>
        <time>2015-12-01T14:49:54Z</time>
      </trkpt>
      <trkpt lat="48.13082" lon="-4.26959">
        <ele>9.2698974609375</ele>
        <time>2015-12-01T14:50:00Z</time>
      </trkpt>
      <trkpt lat="48.13079" lon="-4.26952">
        <ele>8.30859375</ele>
        <time>2015-12-01T14:50:05Z</time>
      </trkpt>
      <trkpt lat="48.13078" lon="-4.26952">
        <ele>7.827880859375</ele>
        <time>2015-12-01T14:50:06Z</time>
      </trkpt>
      <trkpt lat="48.13077" lon="-4.26943">
        <ele>7.827880859375</ele>
        <time>2015-12-01T14:50:14Z</time>
      </trkpt>
      <trkpt lat="48.13076" lon="-4.26939">
        <ele>7.34716796875</ele>
        <time>2015-12-01T14:50:18Z</time>
      </trkpt>
      <trkpt lat="48.13075" lon="-4.26939">
        <ele>6.866455078125</ele>
        <time>2015-12-01T14:50:22Z</time>
      </trkpt>
      <trkpt lat="48.13072" lon="-4.26936">
        <ele>7.34716796875</ele>
        <time>2015-12-01T14:50:25Z</time>
      </trkpt>
      <trkpt lat="48.13066" lon="-4.26929">
        <ele>8.7891845703125</ele>
        <time>2015-12-01T14:50:31Z</time>
      </trkpt>
      <trkpt lat="48.1306" lon="-4.26917">
        <ele>9.2698974609375</ele>
        <time>2015-12-01T14:50:39Z</time>
      </trkpt>
      <trkpt lat="48.1306" lon="-4.26916">
        <ele>8.7891845703125</ele>
        <time>2015-12-01T14:50:40Z</time>
      </trkpt>
      <trkpt lat="48.13052" lon="-4.26906">
        <ele>10.231201171875</ele>
        <time>2015-12-01T14:50:48Z</time>
      </trkpt>
      <trkpt lat="48.13046" lon="-4.26896">
        <ele>10.231201171875</ele>
        <time>2015-12-01T14:50:55Z</time>
      </trkpt>
      <trkpt lat="48.1304" lon="-4.26891">
        <ele>8.7891845703125</ele>
        <time>2015-12-01T14:51:00Z</time>
      </trkpt>
      <trkpt lat="48.1303" lon="-4.26881">
        <ele>8.30859375</ele>
        <time>2015-12-01T14:51:09Z</time>
      </trkpt>
      <trkpt lat="48.13025" lon="-4.26873">
        <ele>8.30859375</ele>
        <time>2015-12-01T14:51:15Z</time>
      </trkpt>
      <trkpt lat="48.13021" lon="-4.26864">
        <ele>7.827880859375</ele>
        <time>2015-12-01T14:51:21Z</time>
      </trkpt>
      <trkpt lat="48.13019" lon="-4.26852">
        <ele>6.3858642578125</ele>
        <time>2015-12-01T14:51:28Z</time>
      </trkpt>
      <trkpt lat="48.13014" lon="-4.26845">
        <ele>6.866455078125</ele>
        <time>2015-12-01T14:51:34Z</time>
      </trkpt>
    </trkseg>
  </trk>
</gpx>